<?xml version="1.0" encoding="UTF-8" standalone="no" ?>
<gpx xmlns="http://www.topografix.com/GPX/1/1" xmlns:xsi="http://www.w3.org/2001/XMLSchema-instance" xsi:schemaLocation="http://www.topografix.com/GPX/1/1 http://www.topografix.com/GPX/1/1/gpx.xsd" version="1.1" creator="VisuGPX - https://www.visugpx.com">
  <metadata>
    <name>Sortie Club 250421</name>
  </metadata>
  <trk>
    <name><![CDATA[60 Wiers/ Pommeroeul]]></name>
    <trkseg>
      <trkpt lat="50.50361" lon="3.46454">
        <ele>22.168888</ele>
        <time>2021-04-09T23:25:12.046Z</time>
      </trkpt>
      <trkpt lat="50.50405" lon="3.46483">
        <ele>22.168888</ele>
        <time>2021-04-09T23:25:20.168Z</time>
      </trkpt>
      <trkpt lat="50.50523" lon="3.46572">
        <ele>23.067717</ele>
        <time>2021-04-09T23:25:44.272Z</time>
      </trkpt>
      <trkpt lat="50.50681" lon="3.46651">
        <ele>24.54503</ele>
        <time>2021-04-09T23:26:16.657Z</time>
      </trkpt>
      <trkpt lat="50.50708" lon="3.46672">
        <ele>24.764348</ele>
        <time>2021-04-09T23:26:21.991Z</time>
      </trkpt>
      <trkpt lat="50.50735" lon="3.46707">
        <ele>25.021139</ele>
        <time>2021-04-09T23:26:27.898Z</time>
      </trkpt>
      <trkpt lat="50.50778" lon="3.46766">
        <ele>25.283442</ele>
        <time>2021-04-09T23:26:36.950Z</time>
      </trkpt>
      <trkpt lat="50.50821" lon="3.46826">
        <ele>25.170256</ele>
        <time>2021-04-09T23:26:45.559Z</time>
      </trkpt>
      <trkpt lat="50.50831" lon="3.4684">
        <ele>25.144596</ele>
        <time>2021-04-09T23:26:47.361Z</time>
      </trkpt>
      <trkpt lat="50.50837" lon="3.46857">
        <ele>25.119884</ele>
        <time>2021-04-09T23:26:49.154Z</time>
      </trkpt>
      <trkpt lat="50.50838" lon="3.46879">
        <ele>25.092663</ele>
        <time>2021-04-09T23:26:51.023Z</time>
      </trkpt>
      <trkpt lat="50.50839" lon="3.46894">
        <ele>25.074243</ele>
        <time>2021-04-09T23:26:52.233Z</time>
      </trkpt>
      <trkpt lat="50.5084" lon="3.46941">
        <ele>25.015477</ele>
        <time>2021-04-09T23:26:56.200Z</time>
      </trkpt>
      <trkpt lat="50.5085" lon="3.46978">
        <ele>24.965002</ele>
        <time>2021-04-09T23:26:59.620Z</time>
      </trkpt>
      <trkpt lat="50.50871" lon="3.47017">
        <ele>24.807986</ele>
        <time>2021-04-09T23:27:03.940Z</time>
      </trkpt>
      <trkpt lat="50.50899" lon="3.47062">
        <ele>24.612718</ele>
        <time>2021-04-09T23:27:09.219Z</time>
      </trkpt>
      <trkpt lat="50.50936" lon="3.47116">
        <ele>24.363224</ele>
        <time>2021-04-09T23:27:15.878Z</time>
      </trkpt>
      <trkpt lat="50.50985" lon="3.47169">
        <ele>24.070384</ele>
        <time>2021-04-09T23:27:23.900Z</time>
      </trkpt>
      <trkpt lat="50.51052" lon="3.47236">
        <ele>23.735555</ele>
        <time>2021-04-09T23:27:34.529Z</time>
      </trkpt>
      <trkpt lat="50.51059" lon="3.47247">
        <ele>23.695519</ele>
        <time>2021-04-09T23:27:35.820Z</time>
      </trkpt>
      <trkpt lat="50.51066" lon="3.47262">
        <ele>23.644594</ele>
        <time>2021-04-09T23:27:37.443Z</time>
      </trkpt>
      <trkpt lat="50.51065" lon="3.47278">
        <ele>23.600838</ele>
        <time>2021-04-09T23:27:38.860Z</time>
      </trkpt>
      <trkpt lat="50.51006" lon="3.47445">
        <ele>23.014471</ele>
        <time>2021-04-09T23:27:55.185Z</time>
      </trkpt>
      <trkpt lat="50.51016" lon="3.47475">
        <ele>22.89319</ele>
        <time>2021-04-09T23:27:58.128Z</time>
      </trkpt>
      <trkpt lat="50.51082" lon="3.4755">
        <ele>22.439684</ele>
        <time>2021-04-09T23:28:08.617Z</time>
      </trkpt>
      <trkpt lat="50.51104" lon="3.47596">
        <ele>22.250545</ele>
        <time>2021-04-09T23:28:13.281Z</time>
      </trkpt>
      <trkpt lat="50.5111" lon="3.47622">
        <ele>22.171275</ele>
        <time>2021-04-09T23:28:15.491Z</time>
      </trkpt>
      <trkpt lat="50.51109" lon="3.47654">
        <ele>22.082151</ele>
        <time>2021-04-09T23:28:18.199Z</time>
      </trkpt>
      <trkpt lat="50.51104" lon="3.47687">
        <ele>21.986401</ele>
        <time>2021-04-09T23:28:20.935Z</time>
      </trkpt>
      <trkpt lat="50.5108" lon="3.47774">
        <ele>21.717221</ele>
        <time>2021-04-09T23:28:29.207Z</time>
      </trkpt>
      <trkpt lat="50.51082" lon="3.47786">
        <ele>21.683499</ele>
        <time>2021-04-09T23:28:30.122Z</time>
      </trkpt>
      <trkpt lat="50.5109" lon="3.47798">
        <ele>21.633138</ele>
        <time>2021-04-09T23:28:31.906Z</time>
      </trkpt>
      <trkpt lat="50.51109" lon="3.47824">
        <ele>21.522924</ele>
        <time>2021-04-09T23:28:35.290Z</time>
      </trkpt>
      <trkpt lat="50.51122" lon="3.47856">
        <ele>21.506371</ele>
        <time>2021-04-09T23:28:39.054Z</time>
      </trkpt>
      <trkpt lat="50.51125" lon="3.47964">
        <ele>21.490032</ele>
        <time>2021-04-09T23:28:49.157Z</time>
      </trkpt>
      <trkpt lat="50.51129" lon="3.48001">
        <ele>21.484353</ele>
        <time>2021-04-09T23:28:52.581Z</time>
      </trkpt>
      <trkpt lat="50.51132" lon="3.48019">
        <ele>21.481555</ele>
        <time>2021-04-09T23:28:54.596Z</time>
      </trkpt>
      <trkpt lat="50.51138" lon="3.48111">
        <ele>21.47131</ele>
        <time>2021-04-09T23:29:03.394Z</time>
      </trkpt>
      <trkpt lat="50.51143" lon="3.48169">
        <ele>21.488178</ele>
        <time>2021-04-09T23:29:08.867Z</time>
      </trkpt>
      <trkpt lat="50.51135" lon="3.48237">
        <ele>21.508094</ele>
        <time>2021-04-09T23:29:15.311Z</time>
      </trkpt>
      <trkpt lat="50.5113" lon="3.48251">
        <ele>21.512527</ele>
        <time>2021-04-09T23:29:16.777Z</time>
      </trkpt>
      <trkpt lat="50.5112" lon="3.48278">
        <ele>21.521708</ele>
        <time>2021-04-09T23:29:19.559Z</time>
      </trkpt>
      <trkpt lat="50.511" lon="3.48334">
        <ele>21.540305</ele>
        <time>2021-04-09T23:29:25.752Z</time>
      </trkpt>
      <trkpt lat="50.51092" lon="3.48355">
        <ele>21.547125</ele>
        <time>2021-04-09T23:29:28.192Z</time>
      </trkpt>
      <trkpt lat="50.51087" lon="3.48377">
        <ele>21.602695</ele>
        <time>2021-04-09T23:29:30.567Z</time>
      </trkpt>
      <trkpt lat="50.51082" lon="3.4846">
        <ele>21.95487</ele>
        <time>2021-04-09T23:29:39.582Z</time>
      </trkpt>
      <trkpt lat="50.5108" lon="3.48506">
        <ele>22.150455</ele>
        <time>2021-04-09T23:29:44.710Z</time>
      </trkpt>
      <trkpt lat="50.51082" lon="3.48534">
        <ele>22.268584</ele>
        <time>2021-04-09T23:29:47.873Z</time>
      </trkpt>
      <trkpt lat="50.51087" lon="3.48604">
        <ele>22.566181</ele>
        <time>2021-04-09T23:29:56.082Z</time>
      </trkpt>
      <trkpt lat="50.51084" lon="3.48625">
        <ele>22.657627</ele>
        <time>2021-04-09T23:29:58.807Z</time>
      </trkpt>
      <trkpt lat="50.51065" lon="3.48691">
        <ele>22.867707</ele>
        <time>2021-04-09T23:30:07.371Z</time>
      </trkpt>
      <trkpt lat="50.5108" lon="3.48708">
        <ele>22.935246</ele>
        <time>2021-04-09T23:30:10.599Z</time>
      </trkpt>
      <trkpt lat="50.51096" lon="3.4873">
        <ele>23.017205</ele>
        <time>2021-04-09T23:30:14.389Z</time>
      </trkpt>
      <trkpt lat="50.51113" lon="3.48814">
        <ele>23.227651</ele>
        <time>2021-04-09T23:30:23.829Z</time>
      </trkpt>
      <trkpt lat="50.51135" lon="3.4885">
        <ele>23.346994</ele>
        <time>2021-04-09T23:30:28.394Z</time>
      </trkpt>
      <trkpt lat="50.5114" lon="3.48867">
        <ele>23.393036</ele>
        <time>2021-04-09T23:30:30.277Z</time>
      </trkpt>
      <trkpt lat="50.51144" lon="3.48878">
        <ele>23.421669</ele>
        <time>2021-04-09T23:30:31.170Z</time>
      </trkpt>
      <trkpt lat="50.5114" lon="3.48908">
        <ele>23.289462</ele>
        <time>2021-04-09T23:30:34.102Z</time>
      </trkpt>
      <trkpt lat="50.51084" lon="3.49038">
        <ele>22.595524</ele>
        <time>2021-04-09T23:30:46.756Z</time>
      </trkpt>
      <trkpt lat="50.5104" lon="3.49284">
        <ele>21.646828</ele>
        <time>2021-04-09T23:31:06.938Z</time>
      </trkpt>
      <trkpt lat="50.51039" lon="3.49338">
        <ele>21.46666</ele>
        <time>2021-04-09T23:31:11.652Z</time>
      </trkpt>
      <trkpt lat="50.51048" lon="3.49357">
        <ele>21.388267</ele>
        <time>2021-04-09T23:31:13.780Z</time>
      </trkpt>
      <trkpt lat="50.51121" lon="3.49492">
        <ele>21.749064</ele>
        <time>2021-04-09T23:31:31.658Z</time>
      </trkpt>
      <trkpt lat="50.51187" lon="3.49526">
        <ele>22.170187</ele>
        <time>2021-04-09T23:31:44.714Z</time>
      </trkpt>
      <trkpt lat="50.51219" lon="3.4955">
        <ele>22.398619</ele>
        <time>2021-04-09T23:31:51.304Z</time>
      </trkpt>
      <trkpt lat="50.51269" lon="3.49574">
        <ele>22.816821</ele>
        <time>2021-04-09T23:32:01.072Z</time>
      </trkpt>
      <trkpt lat="50.51271" lon="3.4958">
        <ele>22.854068</ele>
        <time>2021-04-09T23:32:01.951Z</time>
      </trkpt>
      <trkpt lat="50.51281" lon="3.49649">
        <ele>23.2138</ele>
        <time>2021-04-09T23:32:10.045Z</time>
      </trkpt>
      <trkpt lat="50.51284" lon="3.49655">
        <ele>23.249535</ele>
        <time>2021-04-09T23:32:10.878Z</time>
      </trkpt>
      <trkpt lat="50.5129" lon="3.49667">
        <ele>23.333118</ele>
        <time>2021-04-09T23:32:12.767Z</time>
      </trkpt>
      <trkpt lat="50.51308" lon="3.49699">
        <ele>23.547326</ele>
        <time>2021-04-09T23:32:17.463Z</time>
      </trkpt>
      <trkpt lat="50.51322" lon="3.49739">
        <ele>23.774206</ele>
        <time>2021-04-09T23:32:22.563Z</time>
      </trkpt>
      <trkpt lat="50.51323" lon="3.49797">
        <ele>24.020317</ele>
        <time>2021-04-09T23:32:28.769Z</time>
      </trkpt>
      <trkpt lat="50.51322" lon="3.49943">
        <ele>24.639725</ele>
        <time>2021-04-09T23:32:44.836Z</time>
      </trkpt>
      <trkpt lat="50.51329" lon="3.49959">
        <ele>24.718783</ele>
        <time>2021-04-09T23:32:46.941Z</time>
      </trkpt>
      <trkpt lat="50.51349" lon="3.49997">
        <ele>24.932194</ele>
        <time>2021-04-09T23:32:52.712Z</time>
      </trkpt>
      <trkpt lat="50.51365" lon="3.50016">
        <ele>25.055704</ele>
        <time>2021-04-09T23:32:56.481Z</time>
      </trkpt>
      <trkpt lat="50.51388" lon="3.50031">
        <ele>25.202318</ele>
        <time>2021-04-09T23:33:00.733Z</time>
      </trkpt>
      <trkpt lat="50.51394" lon="3.50042">
        <ele>25.259024</ele>
        <time>2021-04-09T23:33:02.660Z</time>
      </trkpt>
      <trkpt lat="50.51417" lon="3.50101">
        <ele>25.524413</ele>
        <time>2021-04-09T23:33:10.511Z</time>
      </trkpt>
      <trkpt lat="50.51429" lon="3.5015">
        <ele>25.722798</ele>
        <time>2021-04-09T23:33:16.444Z</time>
      </trkpt>
      <trkpt lat="50.51429" lon="3.50165">
        <ele>25.779295</ele>
        <time>2021-04-09T23:33:18.002Z</time>
      </trkpt>
      <trkpt lat="50.51413" lon="3.50213">
        <ele>25.985534</ele>
        <time>2021-04-09T23:33:23.918Z</time>
      </trkpt>
      <trkpt lat="50.51383" lon="3.50594">
        <ele>25.503987</ele>
        <time>2021-04-09T23:33:58.392Z</time>
      </trkpt>
      <trkpt lat="50.51385" lon="3.50682">
        <ele>25.209051</ele>
        <time>2021-04-09T23:34:05.705Z</time>
      </trkpt>
      <trkpt lat="50.51382" lon="3.50734">
        <ele>25.034062</ele>
        <time>2021-04-09T23:34:10.029Z</time>
      </trkpt>
      <trkpt lat="50.5137" lon="3.50913">
        <ele>24.353608</ele>
        <time>2021-04-09T23:34:24.771Z</time>
      </trkpt>
      <trkpt lat="50.51347" lon="3.51036">
        <ele>23.847883</ele>
        <time>2021-04-09T23:34:35.354Z</time>
      </trkpt>
      <trkpt lat="50.51339" lon="3.51141">
        <ele>23.469964</ele>
        <time>2021-04-09T23:34:44.118Z</time>
      </trkpt>
      <trkpt lat="50.51326" lon="3.51213">
        <ele>23.216422</ele>
        <time>2021-04-09T23:34:50.248Z</time>
      </trkpt>
      <trkpt lat="50.51244" lon="3.51405">
        <ele>22.777024</ele>
        <time>2021-04-09T23:35:10.130Z</time>
      </trkpt>
      <trkpt lat="50.51239" lon="3.51418">
        <ele>22.778924</ele>
        <time>2021-04-09T23:35:11.559Z</time>
      </trkpt>
      <trkpt lat="50.51226" lon="3.51449">
        <ele>22.783317</ele>
        <time>2021-04-09T23:35:15.058Z</time>
      </trkpt>
      <trkpt lat="50.51214" lon="3.51479">
        <ele>22.7877</ele>
        <time>2021-04-09T23:35:18.574Z</time>
      </trkpt>
      <trkpt lat="50.51205" lon="3.51506">
        <ele>22.791372</ele>
        <time>2021-04-09T23:35:21.615Z</time>
      </trkpt>
      <trkpt lat="50.51201" lon="3.51522">
        <ele>22.79347</ele>
        <time>2021-04-09T23:35:23.400Z</time>
      </trkpt>
      <trkpt lat="50.51197" lon="3.51535">
        <ele>22.79526</ele>
        <time>2021-04-09T23:35:25.058Z</time>
      </trkpt>
      <trkpt lat="50.51135" lon="3.51641">
        <ele>23.186382</ele>
        <time>2021-04-09T23:35:40.273Z</time>
      </trkpt>
      <trkpt lat="50.51124" lon="3.5167">
        <ele>23.302916</ele>
        <time>2021-04-09T23:35:43.951Z</time>
      </trkpt>
      <trkpt lat="50.51114" lon="3.51704">
        <ele>23.438691</ele>
        <time>2021-04-09T23:35:48.215Z</time>
      </trkpt>
      <trkpt lat="50.51104" lon="3.51739">
        <ele>23.574785</ele>
        <time>2021-04-09T23:35:52.553Z</time>
      </trkpt>
      <trkpt lat="50.51094" lon="3.5177">
        <ele>23.693469</ele>
        <time>2021-04-09T23:35:56.182Z</time>
      </trkpt>
      <trkpt lat="50.51093" lon="3.51776">
        <ele>23.717498</ele>
        <time>2021-04-09T23:35:56.933Z</time>
      </trkpt>
      <trkpt lat="50.51092" lon="3.51783">
        <ele>23.742557</ele>
        <time>2021-04-09T23:35:57.721Z</time>
      </trkpt>
      <trkpt lat="50.5109" lon="3.518">
        <ele>23.800777</ele>
        <time>2021-04-09T23:35:59.597Z</time>
      </trkpt>
      <trkpt lat="50.51084" lon="3.51833">
        <ele>23.903267</ele>
        <time>2021-04-09T23:36:03.298Z</time>
      </trkpt>
      <trkpt lat="50.51081" lon="3.51856">
        <ele>23.972334</ele>
        <time>2021-04-09T23:36:05.890Z</time>
      </trkpt>
      <trkpt lat="50.51067" lon="3.51923">
        <ele>24.18249</ele>
        <time>2021-04-09T23:36:13.540Z</time>
      </trkpt>
      <trkpt lat="50.51031" lon="3.5203">
        <ele>24.541317</ele>
        <time>2021-04-09T23:36:26.093Z</time>
      </trkpt>
      <trkpt lat="50.51005" lon="3.52093">
        <ele>24.722398</ele>
        <time>2021-04-09T23:36:33.933Z</time>
      </trkpt>
      <trkpt lat="50.50925" lon="3.52258">
        <ele>25.138948</ele>
        <time>2021-04-09T23:36:55.410Z</time>
      </trkpt>
      <trkpt lat="50.50882" lon="3.52549">
        <ele>25.431602</ele>
        <time>2021-04-09T23:37:24.902Z</time>
      </trkpt>
      <trkpt lat="50.50864" lon="3.52592">
        <ele>25.383235</ele>
        <time>2021-04-09T23:37:29.818Z</time>
      </trkpt>
      <trkpt lat="50.50857" lon="3.5261">
        <ele>25.347379</ele>
        <time>2021-04-09T23:37:31.678Z</time>
      </trkpt>
      <trkpt lat="50.50833" lon="3.52698">
        <ele>25.181376</ele>
        <time>2021-04-09T23:37:40.172Z</time>
      </trkpt>
      <trkpt lat="50.50832" lon="3.52703">
        <ele>25.171525</ele>
        <time>2021-04-09T23:37:40.640Z</time>
      </trkpt>
      <trkpt lat="50.50824" lon="3.52734">
        <ele>25.113547</ele>
        <time>2021-04-09T23:37:43.541Z</time>
      </trkpt>
      <trkpt lat="50.50823" lon="3.52737">
        <ele>25.108065</ele>
        <time>2021-04-09T23:37:43.803Z</time>
      </trkpt>
      <trkpt lat="50.50805" lon="3.52823">
        <ele>24.947239</ele>
        <time>2021-04-09T23:37:51.608Z</time>
      </trkpt>
      <trkpt lat="50.50806" lon="3.52833">
        <ele>24.913554</ele>
        <time>2021-04-09T23:37:52.430Z</time>
      </trkpt>
      <trkpt lat="50.50786" lon="3.52857">
        <ele>24.781349</ele>
        <time>2021-04-09T23:37:57.049Z</time>
      </trkpt>
      <trkpt lat="50.50779" lon="3.52862">
        <ele>24.740053</ele>
        <time>2021-04-09T23:37:58.552Z</time>
      </trkpt>
      <trkpt lat="50.50771" lon="3.52864">
        <ele>24.69814</ele>
        <time>2021-04-09T23:37:59.949Z</time>
      </trkpt>
      <trkpt lat="50.50773" lon="3.52962">
        <ele>24.370845</ele>
        <time>2021-04-09T23:38:11.618Z</time>
      </trkpt>
      <trkpt lat="50.50774" lon="3.52976">
        <ele>24.321978</ele>
        <time>2021-04-09T23:38:13.183Z</time>
      </trkpt>
      <trkpt lat="50.50773" lon="3.53084">
        <ele>23.910821</ele>
        <time>2021-04-09T23:38:26.050Z</time>
      </trkpt>
      <trkpt lat="50.50773" lon="3.53099">
        <ele>23.812031</ele>
        <time>2021-04-09T23:38:27.550Z</time>
      </trkpt>
      <trkpt lat="50.50773" lon="3.53121">
        <ele>23.663376</ele>
        <time>2021-04-09T23:38:30.155Z</time>
      </trkpt>
      <trkpt lat="50.50774" lon="3.53127">
        <ele>23.618208</ele>
        <time>2021-04-09T23:38:30.958Z</time>
      </trkpt>
      <trkpt lat="50.50775" lon="3.53136">
        <ele>23.559974</ele>
        <time>2021-04-09T23:38:31.943Z</time>
      </trkpt>
      <trkpt lat="50.50777" lon="3.53144">
        <ele>23.499586</ele>
        <time>2021-04-09T23:38:32.905Z</time>
      </trkpt>
      <trkpt lat="50.50811" lon="3.53218">
        <ele>22.878901</ele>
        <time>2021-04-09T23:38:43.030Z</time>
      </trkpt>
      <trkpt lat="50.50826" lon="3.53252">
        <ele>22.593206</ele>
        <time>2021-04-09T23:38:47.434Z</time>
      </trkpt>
      <trkpt lat="50.50819" lon="3.53262">
        <ele>22.487515</ele>
        <time>2021-04-09T23:38:49.080Z</time>
      </trkpt>
      <trkpt lat="50.50821" lon="3.53269">
        <ele>22.430852</ele>
        <time>2021-04-09T23:38:50.035Z</time>
      </trkpt>
      <trkpt lat="50.50816" lon="3.53271">
        <ele>22.379609</ele>
        <time>2021-04-09T23:38:50.859Z</time>
      </trkpt>
      <trkpt lat="50.50816" lon="3.53275">
        <ele>22.351657</ele>
        <time>2021-04-09T23:38:51.284Z</time>
      </trkpt>
      <trkpt lat="50.50807" lon="3.53276">
        <ele>22.251884</ele>
        <time>2021-04-09T23:38:52.280Z</time>
      </trkpt>
      <trkpt lat="50.50706" lon="3.53311">
        <ele>21.422122</ele>
        <time>2021-04-09T23:39:04.495Z</time>
      </trkpt>
      <trkpt lat="50.50692" lon="3.53323">
        <ele>21.30062</ele>
        <time>2021-04-09T23:39:06.347Z</time>
      </trkpt>
      <trkpt lat="50.5069" lon="3.53324">
        <ele>21.284541</ele>
        <time>2021-04-09T23:39:06.591Z</time>
      </trkpt>
      <trkpt lat="50.50685" lon="3.53328">
        <ele>21.243416</ele>
        <time>2021-04-09T23:39:07.336Z</time>
      </trkpt>
      <trkpt lat="50.50655" lon="3.53368">
        <ele>20.946511</ele>
        <time>2021-04-09T23:39:12.543Z</time>
      </trkpt>
      <trkpt lat="50.50652" lon="3.53372">
        <ele>20.916763</ele>
        <time>2021-04-09T23:39:13.220Z</time>
      </trkpt>
      <trkpt lat="50.50651" lon="3.53374">
        <ele>20.906355</ele>
        <time>2021-04-09T23:39:13.459Z</time>
      </trkpt>
      <trkpt lat="50.50647" lon="3.53379">
        <ele>20.865906</ele>
        <time>2021-04-09T23:39:14.547Z</time>
      </trkpt>
      <trkpt lat="50.50602" lon="3.53442">
        <ele>21.056054</ele>
        <time>2021-04-09T23:39:24.051Z</time>
      </trkpt>
      <trkpt lat="50.50593" lon="3.53457">
        <ele>21.164292</ele>
        <time>2021-04-09T23:39:26.697Z</time>
      </trkpt>
      <trkpt lat="50.50581" lon="3.53484">
        <ele>21.33863</ele>
        <time>2021-04-09T23:39:29.934Z</time>
      </trkpt>
      <trkpt lat="50.5058" lon="3.53485">
        <ele>21.346786</ele>
        <time>2021-04-09T23:39:30.175Z</time>
      </trkpt>
      <trkpt lat="50.50577" lon="3.53495">
        <ele>21.405427</ele>
        <time>2021-04-09T23:39:31.581Z</time>
      </trkpt>
      <trkpt lat="50.50572" lon="3.5351">
        <ele>21.49572</ele>
        <time>2021-04-09T23:39:33.891Z</time>
      </trkpt>
      <trkpt lat="50.50569" lon="3.53519">
        <ele>21.550285</ele>
        <time>2021-04-09T23:39:35.073Z</time>
      </trkpt>
      <trkpt lat="50.50559" lon="3.53545">
        <ele>21.712617</ele>
        <time>2021-04-09T23:39:38.912Z</time>
      </trkpt>
      <trkpt lat="50.50536" lon="3.53592">
        <ele>22.024728</ele>
        <time>2021-04-09T23:39:46.475Z</time>
      </trkpt>
      <trkpt lat="50.50503" lon="3.53661">
        <ele>22.389706</ele>
        <time>2021-04-09T23:39:57.220Z</time>
      </trkpt>
      <trkpt lat="50.50491" lon="3.53686">
        <ele>22.495095</ele>
        <time>2021-04-09T23:40:00.960Z</time>
      </trkpt>
      <trkpt lat="50.50479" lon="3.53725">
        <ele>22.644828</ele>
        <time>2021-04-09T23:40:05.981Z</time>
      </trkpt>
      <trkpt lat="50.50476" lon="3.53733">
        <ele>22.675537</ele>
        <time>2021-04-09T23:40:06.971Z</time>
      </trkpt>
      <trkpt lat="50.50476" lon="3.53744">
        <ele>22.71216</ele>
        <time>2021-04-09T23:40:08.238Z</time>
      </trkpt>
      <trkpt lat="50.50485" lon="3.53902">
        <ele>23.181315</ele>
        <time>2021-04-09T23:40:23.652Z</time>
      </trkpt>
      <trkpt lat="50.50483" lon="3.53914">
        <ele>23.183667</ele>
        <time>2021-04-09T23:40:24.912Z</time>
      </trkpt>
      <trkpt lat="50.50479" lon="3.53939">
        <ele>23.188647</ele>
        <time>2021-04-09T23:40:27.188Z</time>
      </trkpt>
      <trkpt lat="50.50477" lon="3.53946">
        <ele>23.190063</ele>
        <time>2021-04-09T23:40:27.858Z</time>
      </trkpt>
      <trkpt lat="50.50465" lon="3.54001">
        <ele>23.20128</ele>
        <time>2021-04-09T23:40:33.135Z</time>
      </trkpt>
      <trkpt lat="50.5046" lon="3.54026">
        <ele>23.206452</ele>
        <time>2021-04-09T23:40:35.667Z</time>
      </trkpt>
      <trkpt lat="50.50434" lon="3.54152">
        <ele>23.238119</ele>
        <time>2021-04-09T23:40:48.097Z</time>
      </trkpt>
      <trkpt lat="50.50417" lon="3.54232">
        <ele>23.594114</ele>
        <time>2021-04-09T23:40:56.828Z</time>
      </trkpt>
      <trkpt lat="50.50415" lon="3.54242">
        <ele>23.640511</ele>
        <time>2021-04-09T23:40:58.056Z</time>
      </trkpt>
      <trkpt lat="50.50403" lon="3.54302">
        <ele>23.90756</ele>
        <time>2021-04-09T23:41:05.092Z</time>
      </trkpt>
      <trkpt lat="50.50392" lon="3.54354">
        <ele>24.140562</ele>
        <time>2021-04-09T23:41:11.434Z</time>
      </trkpt>
      <trkpt lat="50.50388" lon="3.54375">
        <ele>24.230135</ele>
        <time>2021-04-09T23:41:14.099Z</time>
      </trkpt>
      <trkpt lat="50.50307" lon="3.54768">
        <ele>26.264159</ele>
        <time>2021-04-09T23:42:03.912Z</time>
      </trkpt>
      <trkpt lat="50.50302" lon="3.54793">
        <ele>26.272926</ele>
        <time>2021-04-09T23:42:06.840Z</time>
      </trkpt>
      <trkpt lat="50.50297" lon="3.54806">
        <ele>26.278151</ele>
        <time>2021-04-09T23:42:08.375Z</time>
      </trkpt>
      <trkpt lat="50.50278" lon="3.54825">
        <ele>26.290048</ele>
        <time>2021-04-09T23:42:12.028Z</time>
      </trkpt>
      <trkpt lat="50.50262" lon="3.5483">
        <ele>26.298275</ele>
        <time>2021-04-09T23:42:14.400Z</time>
      </trkpt>
      <trkpt lat="50.50089" lon="3.54839">
        <ele>24.690218</ele>
        <time>2021-04-09T23:42:35.495Z</time>
      </trkpt>
      <trkpt lat="50.50079" lon="3.54839">
        <ele>24.539907</ele>
        <time>2021-04-09T23:42:36.583Z</time>
      </trkpt>
      <trkpt lat="50.50066" lon="3.54839">
        <ele>24.361592</ele>
        <time>2021-04-09T23:42:37.942Z</time>
      </trkpt>
      <trkpt lat="50.50063" lon="3.54838">
        <ele>24.309819</ele>
        <time>2021-04-09T23:42:38.346Z</time>
      </trkpt>
      <trkpt lat="50.50054" lon="3.54837">
        <ele>24.184096</ele>
        <time>2021-04-09T23:42:39.269Z</time>
      </trkpt>
      <trkpt lat="50.5001" lon="3.54829">
        <ele>23.472063</ele>
        <time>2021-04-09T23:42:44.088Z</time>
      </trkpt>
      <trkpt lat="50.49999" lon="3.54826">
        <ele>23.25948</ele>
        <time>2021-04-09T23:42:45.298Z</time>
      </trkpt>
      <trkpt lat="50.49987" lon="3.54823">
        <ele>23.032085</ele>
        <time>2021-04-09T23:42:46.560Z</time>
      </trkpt>
      <trkpt lat="50.49943" lon="3.54814">
        <ele>22.156054</ele>
        <time>2021-04-09T23:42:51.359Z</time>
      </trkpt>
      <trkpt lat="50.49937" lon="3.54813">
        <ele>22.037352</ele>
        <time>2021-04-09T23:42:51.993Z</time>
      </trkpt>
      <trkpt lat="50.49914" lon="3.54813">
        <ele>21.600286</ele>
        <time>2021-04-09T23:42:54.482Z</time>
      </trkpt>
      <trkpt lat="50.49907" lon="3.54814">
        <ele>21.454664</ele>
        <time>2021-04-09T23:42:55.269Z</time>
      </trkpt>
      <trkpt lat="50.49879" lon="3.54829">
        <ele>20.889887</ele>
        <time>2021-04-09T23:42:58.594Z</time>
      </trkpt>
      <trkpt lat="50.49871" lon="3.54834">
        <ele>20.709102</ele>
        <time>2021-04-09T23:42:59.598Z</time>
      </trkpt>
      <trkpt lat="50.49864" lon="3.54838">
        <ele>20.58121</ele>
        <time>2021-04-09T23:43:00.376Z</time>
      </trkpt>
      <trkpt lat="50.49851" lon="3.54847">
        <ele>20.299643</ele>
        <time>2021-04-09T23:43:02.053Z</time>
      </trkpt>
      <trkpt lat="50.49797" lon="3.5488">
        <ele>20.071366</ele>
        <time>2021-04-09T23:43:09.002Z</time>
      </trkpt>
      <trkpt lat="50.49764" lon="3.5489">
        <ele>19.994774</ele>
        <time>2021-04-09T23:43:13.464Z</time>
      </trkpt>
      <trkpt lat="50.49757" lon="3.54891">
        <ele>19.979972</ele>
        <time>2021-04-09T23:43:14.282Z</time>
      </trkpt>
      <trkpt lat="50.49752" lon="3.54891">
        <ele>19.969433</ele>
        <time>2021-04-09T23:43:14.983Z</time>
      </trkpt>
      <trkpt lat="50.497" lon="3.54892">
        <ele>19.851023</ele>
        <time>2021-04-09T23:43:23.432Z</time>
      </trkpt>
      <trkpt lat="50.49671" lon="3.54894">
        <ele>19.787309</ele>
        <time>2021-04-09T23:43:28.463Z</time>
      </trkpt>
      <trkpt lat="50.49667" lon="3.54894">
        <ele>19.837658</ele>
        <time>2021-04-09T23:43:29.334Z</time>
      </trkpt>
      <trkpt lat="50.49643" lon="3.54903">
        <ele>20.339482</ele>
        <time>2021-04-09T23:43:34.060Z</time>
      </trkpt>
      <trkpt lat="50.49616" lon="3.54924">
        <ele>20.933101</ele>
        <time>2021-04-09T23:43:40.238Z</time>
      </trkpt>
      <trkpt lat="50.49489" lon="3.55026">
        <ele>23.834642</ele>
        <time>2021-04-09T23:44:15.176Z</time>
      </trkpt>
      <trkpt lat="50.49477" lon="3.55033">
        <ele>24.139177</ele>
        <time>2021-04-09T23:44:18.783Z</time>
      </trkpt>
      <trkpt lat="50.49438" lon="3.55057">
        <ele>25.148089</ele>
        <time>2021-04-09T23:44:29.582Z</time>
      </trkpt>
      <trkpt lat="50.49088" lon="3.55174">
        <ele>32.794897</ele>
        <time>2021-04-09T23:45:55.011Z</time>
      </trkpt>
      <trkpt lat="50.4908" lon="3.5518">
        <ele>32.930727</ele>
        <time>2021-04-09T23:45:57.061Z</time>
      </trkpt>
      <trkpt lat="50.49077" lon="3.55184">
        <ele>32.988279</ele>
        <time>2021-04-09T23:45:57.806Z</time>
      </trkpt>
      <trkpt lat="50.4905" lon="3.55236">
        <ele>33.594081</ele>
        <time>2021-04-09T23:46:05.738Z</time>
      </trkpt>
      <trkpt lat="50.48992" lon="3.55343">
        <ele>34.489726</ele>
        <time>2021-04-09T23:46:21.366Z</time>
      </trkpt>
      <trkpt lat="50.48921" lon="3.55421">
        <ele>34.832574</ele>
        <time>2021-04-09T23:46:35.002Z</time>
      </trkpt>
      <trkpt lat="50.48865" lon="3.55473">
        <ele>35.084203</ele>
        <time>2021-04-09T23:46:45.700Z</time>
      </trkpt>
      <trkpt lat="50.48754" lon="3.55549">
        <ele>35.461904</ele>
        <time>2021-04-09T23:47:05.549Z</time>
      </trkpt>
      <trkpt lat="50.48598" lon="3.55638">
        <ele>35.677566</ele>
        <time>2021-04-09T23:47:30.740Z</time>
      </trkpt>
      <trkpt lat="50.48538" lon="3.55689">
        <ele>35.717167</ele>
        <time>2021-04-09T23:47:40.710Z</time>
      </trkpt>
      <trkpt lat="50.4842" lon="3.55811">
        <ele>35.830395</ele>
        <time>2021-04-09T23:48:02.327Z</time>
      </trkpt>
      <trkpt lat="50.48405" lon="3.5583">
        <ele>35.845495</ele>
        <time>2021-04-09T23:48:05.268Z</time>
      </trkpt>
      <trkpt lat="50.48397" lon="3.55842">
        <ele>35.854207</ele>
        <time>2021-04-09T23:48:07.008Z</time>
      </trkpt>
      <trkpt lat="50.48354" lon="3.55911">
        <ele>35.710975</ele>
        <time>2021-04-09T23:48:16.283Z</time>
      </trkpt>
      <trkpt lat="50.48335" lon="3.55953">
        <ele>35.630883</ele>
        <time>2021-04-09T23:48:20.942Z</time>
      </trkpt>
      <trkpt lat="50.48301" lon="3.56067">
        <ele>35.433182</ele>
        <time>2021-04-09T23:48:31.897Z</time>
      </trkpt>
      <trkpt lat="50.483" lon="3.56072">
        <ele>35.425161</ele>
        <time>2021-04-09T23:48:32.312Z</time>
      </trkpt>
      <trkpt lat="50.48293" lon="3.56089">
        <ele>35.347136</ele>
        <time>2021-04-09T23:48:33.871Z</time>
      </trkpt>
      <trkpt lat="50.48243" lon="3.56196">
        <ele>34.679909</ele>
        <time>2021-04-09T23:48:44.422Z</time>
      </trkpt>
      <trkpt lat="50.48228" lon="3.56227">
        <ele>34.482294</ele>
        <time>2021-04-09T23:48:47.432Z</time>
      </trkpt>
      <trkpt lat="50.48208" lon="3.56265">
        <ele>34.232611</ele>
        <time>2021-04-09T23:48:51.361Z</time>
      </trkpt>
      <trkpt lat="50.48148" lon="3.56376">
        <ele>33.852174</ele>
        <time>2021-04-09T23:49:03.496Z</time>
      </trkpt>
      <trkpt lat="50.48095" lon="3.56458">
        <ele>33.689981</ele>
        <time>2021-04-09T23:49:14.021Z</time>
      </trkpt>
      <trkpt lat="50.48064" lon="3.56501">
        <ele>33.599421</ele>
        <time>2021-04-09T23:49:20.451Z</time>
      </trkpt>
      <trkpt lat="50.48001" lon="3.56586">
        <ele>33.859354</ele>
        <time>2021-04-09T23:49:34.050Z</time>
      </trkpt>
      <trkpt lat="50.47936" lon="3.56676">
        <ele>34.142781</ele>
        <time>2021-04-09T23:49:48.110Z</time>
      </trkpt>
      <trkpt lat="50.47827" lon="3.56819">
        <ele>34.474238</ele>
        <time>2021-04-09T23:50:10.761Z</time>
      </trkpt>
      <trkpt lat="50.47735" lon="3.56911">
        <ele>34.583484</ele>
        <time>2021-04-09T23:50:27.573Z</time>
      </trkpt>
      <trkpt lat="50.47722" lon="3.56916">
        <ele>34.582924</ele>
        <time>2021-04-09T23:50:29.470Z</time>
      </trkpt>
      <trkpt lat="50.47705" lon="3.56915">
        <ele>34.582175</ele>
        <time>2021-04-09T23:50:32.036Z</time>
      </trkpt>
      <trkpt lat="50.47655" lon="3.56904">
        <ele>34.57995</ele>
        <time>2021-04-09T23:50:39.476Z</time>
      </trkpt>
      <trkpt lat="50.47636" lon="3.56942">
        <ele>34.578624</ele>
        <time>2021-04-09T23:50:43.866Z</time>
      </trkpt>
      <trkpt lat="50.47542" lon="3.56967">
        <ele>34.312383</ele>
        <time>2021-04-09T23:50:57.240Z</time>
      </trkpt>
      <trkpt lat="50.47451" lon="3.56967">
        <ele>34.03217</ele>
        <time>2021-04-09T23:51:09.514Z</time>
      </trkpt>
      <trkpt lat="50.47445" lon="3.56969">
        <ele>34.015718</ele>
        <time>2021-04-09T23:51:10.252Z</time>
      </trkpt>
      <trkpt lat="50.47327" lon="3.57011">
        <ele>33.723882</ele>
        <time>2021-04-09T23:51:26.954Z</time>
      </trkpt>
      <trkpt lat="50.47299" lon="3.57018">
        <ele>33.654566</ele>
        <time>2021-04-09T23:51:31.023Z</time>
      </trkpt>
      <trkpt lat="50.473" lon="3.57085">
        <ele>33.610833</ele>
        <time>2021-04-09T23:51:39.619Z</time>
      </trkpt>
      <trkpt lat="50.47306" lon="3.57172">
        <ele>33.696393</ele>
        <time>2021-04-09T23:51:50.880Z</time>
      </trkpt>
      <trkpt lat="50.47309" lon="3.57215">
        <ele>33.73848</ele>
        <time>2021-04-09T23:51:56.674Z</time>
      </trkpt>
      <trkpt lat="50.47313" lon="3.57327">
        <ele>33.847476</ele>
        <time>2021-04-09T23:52:12.147Z</time>
      </trkpt>
      <trkpt lat="50.47312" lon="3.5737">
        <ele>33.923474</ele>
        <time>2021-04-09T23:52:18.029Z</time>
      </trkpt>
      <trkpt lat="50.47349" lon="3.57406">
        <ele>34.079281</ele>
        <time>2021-04-09T23:52:27.853Z</time>
      </trkpt>
      <trkpt lat="50.47395" lon="3.5745">
        <ele>34.268382</ele>
        <time>2021-04-09T23:52:39.322Z</time>
      </trkpt>
      <trkpt lat="50.4741" lon="3.57469">
        <ele>34.334586</ele>
        <time>2021-04-09T23:52:43.546Z</time>
      </trkpt>
      <trkpt lat="50.47405" lon="3.57487">
        <ele>34.378488</ele>
        <time>2021-04-09T23:52:45.452Z</time>
      </trkpt>
      <trkpt lat="50.4738" lon="3.57701">
        <ele>34.779761</ele>
        <time>2021-04-09T23:53:07.619Z</time>
      </trkpt>
      <trkpt lat="50.47344" lon="3.57846">
        <ele>35.049541</ele>
        <time>2021-04-09T23:53:23.098Z</time>
      </trkpt>
      <trkpt lat="50.47333" lon="3.57912">
        <ele>35.171616</ele>
        <time>2021-04-09T23:53:30.362Z</time>
      </trkpt>
      <trkpt lat="50.47322" lon="3.5798">
        <ele>35.297729</ele>
        <time>2021-04-09T23:53:37.699Z</time>
      </trkpt>
      <trkpt lat="50.47305" lon="3.5806">
        <ele>35.44919</ele>
        <time>2021-04-09T23:53:46.440Z</time>
      </trkpt>
      <trkpt lat="50.47295" lon="3.58114">
        <ele>35.318976</ele>
        <time>2021-04-09T23:53:51.789Z</time>
      </trkpt>
      <trkpt lat="50.47293" lon="3.58174">
        <ele>35.019911</ele>
        <time>2021-04-09T23:53:57.188Z</time>
      </trkpt>
      <trkpt lat="50.473" lon="3.58321">
        <ele>34.28971</ele>
        <time>2021-04-09T23:54:08.844Z</time>
      </trkpt>
      <trkpt lat="50.47299" lon="3.58529">
        <ele>32.650911</ele>
        <time>2021-04-09T23:54:23.797Z</time>
      </trkpt>
      <trkpt lat="50.4728" lon="3.58613">
        <ele>31.884256</ele>
        <time>2021-04-09T23:54:30.483Z</time>
      </trkpt>
      <trkpt lat="50.47259" lon="3.58683">
        <ele>31.69678</ele>
        <time>2021-04-09T23:54:36.654Z</time>
      </trkpt>
      <trkpt lat="50.4719" lon="3.58861">
        <ele>31.867848</ele>
        <time>2021-04-09T23:54:58.141Z</time>
      </trkpt>
      <trkpt lat="50.4717" lon="3.58938">
        <ele>32.19339</ele>
        <time>2021-04-09T23:55:08.194Z</time>
      </trkpt>
      <trkpt lat="50.47144" lon="3.59057">
        <ele>32.834616</ele>
        <time>2021-04-09T23:55:23.476Z</time>
      </trkpt>
      <trkpt lat="50.47088" lon="3.59539">
        <ele>34.296087</ele>
        <time>2021-04-09T23:56:16.361Z</time>
      </trkpt>
      <trkpt lat="50.47067" lon="3.59697">
        <ele>34.279004</ele>
        <time>2021-04-09T23:56:30.613Z</time>
      </trkpt>
      <trkpt lat="50.47066" lon="3.59711">
        <ele>34.267088</ele>
        <time>2021-04-09T23:56:31.733Z</time>
      </trkpt>
      <trkpt lat="50.47063" lon="3.59734">
        <ele>34.192389</ele>
        <time>2021-04-09T23:56:33.736Z</time>
      </trkpt>
      <trkpt lat="50.47043" lon="3.59956">
        <ele>33.484609</ele>
        <time>2021-04-09T23:56:52.383Z</time>
      </trkpt>
      <trkpt lat="50.47035" lon="3.60007">
        <ele>33.315654</ele>
        <time>2021-04-09T23:56:57.108Z</time>
      </trkpt>
      <trkpt lat="50.47024" lon="3.60065">
        <ele>33.120672</ele>
        <time>2021-04-09T23:57:02.555Z</time>
      </trkpt>
      <trkpt lat="50.47013" lon="3.60155">
        <ele>32.822785</ele>
        <time>2021-04-09T23:57:10.697Z</time>
      </trkpt>
      <trkpt lat="50.47008" lon="3.60242">
        <ele>32.538626</ele>
        <time>2021-04-09T23:57:17.757Z</time>
      </trkpt>
      <trkpt lat="50.47009" lon="3.60261">
        <ele>32.477988</ele>
        <time>2021-04-09T23:57:19.269Z</time>
      </trkpt>
      <trkpt lat="50.47013" lon="3.60349">
        <ele>31.634067</ele>
        <time>2021-04-09T23:57:26.233Z</time>
      </trkpt>
      <trkpt lat="50.4701" lon="3.60395">
        <ele>31.188093</ele>
        <time>2021-04-09T23:57:29.756Z</time>
      </trkpt>
      <trkpt lat="50.47004" lon="3.60434">
        <ele>30.799661</ele>
        <time>2021-04-09T23:57:32.571Z</time>
      </trkpt>
      <trkpt lat="50.46977" lon="3.60563">
        <ele>29.389613</ele>
        <time>2021-04-09T23:57:42.128Z</time>
      </trkpt>
      <trkpt lat="50.46975" lon="3.60638">
        <ele>28.42944</ele>
        <time>2021-04-09T23:57:47.309Z</time>
      </trkpt>
      <trkpt lat="50.46975" lon="3.60643">
        <ele>28.360937</ele>
        <time>2021-04-09T23:57:47.624Z</time>
      </trkpt>
      <trkpt lat="50.4698" lon="3.60727">
        <ele>27.274189</ele>
        <time>2021-04-09T23:57:53.683Z</time>
      </trkpt>
      <trkpt lat="50.46994" lon="3.60909">
        <ele>24.998086</ele>
        <time>2021-04-09T23:58:06.502Z</time>
      </trkpt>
      <trkpt lat="50.4699" lon="3.6095">
        <ele>24.509551</ele>
        <time>2021-04-09T23:58:09.425Z</time>
      </trkpt>
      <trkpt lat="50.46983" lon="3.60969">
        <ele>24.242366</ele>
        <time>2021-04-09T23:58:11.033Z</time>
      </trkpt>
      <trkpt lat="50.46999" lon="3.60997">
        <ele>23.795327</ele>
        <time>2021-04-09T23:58:13.656Z</time>
      </trkpt>
      <trkpt lat="50.4702" lon="3.61037">
        <ele>23.17136</ele>
        <time>2021-04-09T23:58:17.330Z</time>
      </trkpt>
      <trkpt lat="50.47053" lon="3.61119">
        <ele>22.271445</ele>
        <time>2021-04-09T23:58:24.313Z</time>
      </trkpt>
      <trkpt lat="50.47089" lon="3.61212">
        <ele>21.460061</ele>
        <time>2021-04-09T23:58:32.416Z</time>
      </trkpt>
      <trkpt lat="50.47111" lon="3.6127">
        <ele>20.957397</ele>
        <time>2021-04-09T23:58:37.820Z</time>
      </trkpt>
      <trkpt lat="50.47135" lon="3.61361">
        <ele>20.560072</ele>
        <time>2021-04-09T23:58:45.987Z</time>
      </trkpt>
      <trkpt lat="50.47159" lon="3.61413">
        <ele>20.516988</ele>
        <time>2021-04-09T23:58:51.857Z</time>
      </trkpt>
      <trkpt lat="50.47179" lon="3.61443">
        <ele>20.48826</ele>
        <time>2021-04-09T23:58:56.181Z</time>
      </trkpt>
      <trkpt lat="50.47202" lon="3.61466">
        <ele>20.459232</ele>
        <time>2021-04-09T23:59:00.463Z</time>
      </trkpt>
      <trkpt lat="50.47224" lon="3.61481">
        <ele>20.434381</ele>
        <time>2021-04-09T23:59:03.982Z</time>
      </trkpt>
      <trkpt lat="50.47254" lon="3.61514">
        <ele>20.428103</ele>
        <time>2021-04-09T23:59:09.485Z</time>
      </trkpt>
      <trkpt lat="50.47324" lon="3.61636">
        <ele>20.722059</ele>
        <time>2021-04-09T23:59:25.504Z</time>
      </trkpt>
      <trkpt lat="50.47374" lon="3.61705">
        <ele>20.909506</ele>
        <time>2021-04-09T23:59:37.033Z</time>
      </trkpt>
      <trkpt lat="50.474" lon="3.6173">
        <ele>20.986596</ele>
        <time>2021-04-09T23:59:42.433Z</time>
      </trkpt>
      <trkpt lat="50.47413" lon="3.61844">
        <ele>21.170586</ele>
        <time>2021-04-09T23:59:58.957Z</time>
      </trkpt>
      <trkpt lat="50.47417" lon="3.61861">
        <ele>21.198296</ele>
        <time>2021-04-10T00:00:01.323Z</time>
      </trkpt>
      <trkpt lat="50.47417" lon="3.61861">
        <ele>21.199371</ele>
        <time>2021-04-10T00:00:01.439Z</time>
      </trkpt>
      <trkpt lat="50.47458" lon="3.61889">
        <ele>21.310604</ele>
        <time>2021-04-10T00:00:10.644Z</time>
      </trkpt>
      <trkpt lat="50.47465" lon="3.61911">
        <ele>21.348721</ele>
        <time>2021-04-10T00:00:13.650Z</time>
      </trkpt>
      <trkpt lat="50.4746" lon="3.61951">
        <ele>21.112318</ele>
        <time>2021-04-10T00:00:18.709Z</time>
      </trkpt>
      <trkpt lat="50.47384" lon="3.62316">
        <ele>18.458993</ele>
        <time>2021-04-10T00:00:59.331Z</time>
      </trkpt>
      <trkpt lat="50.47346" lon="3.62499">
        <ele>17.614864</ele>
        <time>2021-04-10T00:01:21.649Z</time>
      </trkpt>
      <trkpt lat="50.47275" lon="3.62839">
        <ele>18.524722</ele>
        <time>2021-04-10T00:02:12.484Z</time>
      </trkpt>
      <trkpt lat="50.47241" lon="3.62996">
        <ele>19.247111</ele>
        <time>2021-04-10T00:02:37.219Z</time>
      </trkpt>
      <trkpt lat="50.47358" lon="3.63073">
        <ele>20.090554</ele>
        <time>2021-04-10T00:03:06.498Z</time>
      </trkpt>
      <trkpt lat="50.47574" lon="3.63216">
        <ele>21.463778</ele>
        <time>2021-04-10T00:03:59.488Z</time>
      </trkpt>
      <trkpt lat="50.47584" lon="3.63222">
        <ele>21.450894</ele>
        <time>2021-04-10T00:04:01.951Z</time>
      </trkpt>
      <trkpt lat="50.47647" lon="3.63233">
        <ele>21.374804</ele>
        <time>2021-04-10T00:04:14.889Z</time>
      </trkpt>
      <trkpt lat="50.47651" lon="3.63325">
        <ele>21.30387</ele>
        <time>2021-04-10T00:04:23.184Z</time>
      </trkpt>
      <trkpt lat="50.47651" lon="3.63557">
        <ele>20.848982</ele>
        <time>2021-04-10T00:04:42.507Z</time>
      </trkpt>
      <trkpt lat="50.47643" lon="3.63572">
        <ele>20.800231</ele>
        <time>2021-04-10T00:04:44.951Z</time>
      </trkpt>
      <trkpt lat="50.47616" lon="3.63712">
        <ele>20.554361</ele>
        <time>2021-04-10T00:05:02.948Z</time>
      </trkpt>
      <trkpt lat="50.47613" lon="3.63738">
        <ele>20.554997</ele>
        <time>2021-04-10T00:05:06.594Z</time>
      </trkpt>
      <trkpt lat="50.4761" lon="3.63755">
        <ele>20.555392</ele>
        <time>2021-04-10T00:05:08.709Z</time>
      </trkpt>
      <trkpt lat="50.47598" lon="3.6382">
        <ele>20.556993</ele>
        <time>2021-04-10T00:05:17.831Z</time>
      </trkpt>
      <trkpt lat="50.47518" lon="3.63966">
        <ele>20.500577</ele>
        <time>2021-04-10T00:05:43.032Z</time>
      </trkpt>
      <trkpt lat="50.47507" lon="3.63994">
        <ele>20.472127</ele>
        <time>2021-04-10T00:05:47.262Z</time>
      </trkpt>
      <trkpt lat="50.47495" lon="3.64043">
        <ele>20.426364</ele>
        <time>2021-04-10T00:05:53.951Z</time>
      </trkpt>
      <trkpt lat="50.47493" lon="3.64057">
        <ele>20.414353</ele>
        <time>2021-04-10T00:05:55.601Z</time>
      </trkpt>
      <trkpt lat="50.47466" lon="3.64235">
        <ele>20.026059</ele>
        <time>2021-04-10T00:06:17.806Z</time>
      </trkpt>
      <trkpt lat="50.47453" lon="3.64283">
        <ele>19.799813</ele>
        <time>2021-04-10T00:06:23.917Z</time>
      </trkpt>
      <trkpt lat="50.4743" lon="3.64336">
        <ele>19.533096</ele>
        <time>2021-04-10T00:06:31.137Z</time>
      </trkpt>
      <trkpt lat="50.47406" lon="3.64373">
        <ele>19.306673</ele>
        <time>2021-04-10T00:06:37.202Z</time>
      </trkpt>
      <trkpt lat="50.47373" lon="3.64425">
        <ele>18.962111</ele>
        <time>2021-04-10T00:06:45.400Z</time>
      </trkpt>
      <trkpt lat="50.47361" lon="3.64444">
        <ele>18.81711</ele>
        <time>2021-04-10T00:06:48.336Z</time>
      </trkpt>
      <trkpt lat="50.47347" lon="3.64462">
        <ele>18.662768</ele>
        <time>2021-04-10T00:06:51.442Z</time>
      </trkpt>
      <trkpt lat="50.47282" lon="3.64512">
        <ele>18.045177</ele>
        <time>2021-04-10T00:07:04.210Z</time>
      </trkpt>
      <trkpt lat="50.47265" lon="3.64543">
        <ele>17.825332</ele>
        <time>2021-04-10T00:07:08.837Z</time>
      </trkpt>
      <trkpt lat="50.47254" lon="3.64584">
        <ele>17.587482</ele>
        <time>2021-04-10T00:07:13.983Z</time>
      </trkpt>
      <trkpt lat="50.47252" lon="3.64613">
        <ele>17.578538</ele>
        <time>2021-04-10T00:07:17.404Z</time>
      </trkpt>
      <trkpt lat="50.47249" lon="3.64634">
        <ele>17.572404</ele>
        <time>2021-04-10T00:07:20.059Z</time>
      </trkpt>
      <trkpt lat="50.47245" lon="3.64699">
        <ele>17.553981</ele>
        <time>2021-04-10T00:07:27.983Z</time>
      </trkpt>
      <trkpt lat="50.47231" lon="3.64758">
        <ele>17.53614</ele>
        <time>2021-04-10T00:07:35.892Z</time>
      </trkpt>
      <trkpt lat="50.47228" lon="3.64795">
        <ele>17.525737</ele>
        <time>2021-04-10T00:07:40.851Z</time>
      </trkpt>
      <trkpt lat="50.47228" lon="3.64831">
        <ele>17.515348</ele>
        <time>2021-04-10T00:07:45.983Z</time>
      </trkpt>
      <trkpt lat="50.47231" lon="3.64899">
        <ele>17.696865</ele>
        <time>2021-04-10T00:07:55.773Z</time>
      </trkpt>
      <trkpt lat="50.47239" lon="3.64931">
        <ele>17.876643</ele>
        <time>2021-04-10T00:08:00.940Z</time>
      </trkpt>
      <trkpt lat="50.47251" lon="3.64968">
        <ele>18.090236</ele>
        <time>2021-04-10T00:08:06.963Z</time>
      </trkpt>
      <trkpt lat="50.47258" lon="3.64983">
        <ele>18.185708</ele>
        <time>2021-04-10T00:08:09.923Z</time>
      </trkpt>
      <trkpt lat="50.47285" lon="3.65047">
        <ele>18.579734</ele>
        <time>2021-04-10T00:08:21.703Z</time>
      </trkpt>
      <trkpt lat="50.473" lon="3.65064">
        <ele>18.726903</ele>
        <time>2021-04-10T00:08:26.114Z</time>
      </trkpt>
      <trkpt lat="50.47365" lon="3.65046">
        <ele>19.139845</ele>
        <time>2021-04-10T00:08:41.841Z</time>
      </trkpt>
      <trkpt lat="50.47403" lon="3.65037">
        <ele>19.32364</ele>
        <time>2021-04-10T00:08:50.582Z</time>
      </trkpt>
      <trkpt lat="50.47415" lon="3.65029">
        <ele>19.38441</ele>
        <time>2021-04-10T00:08:53.417Z</time>
      </trkpt>
      <trkpt lat="50.47437" lon="3.65014">
        <ele>19.502967</ele>
        <time>2021-04-10T00:08:58.680Z</time>
      </trkpt>
      <trkpt lat="50.47471" lon="3.64991">
        <ele>19.678073</ele>
        <time>2021-04-10T00:09:06.452Z</time>
      </trkpt>
      <trkpt lat="50.47476" lon="3.64986">
        <ele>19.705444</ele>
        <time>2021-04-10T00:09:07.727Z</time>
      </trkpt>
      <trkpt lat="50.47511" lon="3.64958">
        <ele>19.832665</ele>
        <time>2021-04-10T00:09:16.143Z</time>
      </trkpt>
      <trkpt lat="50.47516" lon="3.6495">
        <ele>19.837082</ele>
        <time>2021-04-10T00:09:17.624Z</time>
      </trkpt>
      <trkpt lat="50.4757" lon="3.64893">
        <ele>19.876209</ele>
        <time>2021-04-10T00:09:30.800Z</time>
      </trkpt>
      <trkpt lat="50.47586" lon="3.64863">
        <ele>19.89119</ele>
        <time>2021-04-10T00:09:35.668Z</time>
      </trkpt>
      <trkpt lat="50.47598" lon="3.64836">
        <ele>19.903694</ele>
        <time>2021-04-10T00:09:39.773Z</time>
      </trkpt>
      <trkpt lat="50.47647" lon="3.64777">
        <ele>19.956051</ele>
        <time>2021-04-10T00:09:52.312Z</time>
      </trkpt>
      <trkpt lat="50.4766" lon="3.64749">
        <ele>19.993255</ele>
        <time>2021-04-10T00:09:57.045Z</time>
      </trkpt>
      <trkpt lat="50.47679" lon="3.64679">
        <ele>20.073258</ele>
        <time>2021-04-10T00:10:07.324Z</time>
      </trkpt>
      <trkpt lat="50.47723" lon="3.64594">
        <ele>20.188512</ele>
        <time>2021-04-10T00:10:21.904Z</time>
      </trkpt>
      <trkpt lat="50.47751" lon="3.64545">
        <ele>20.311105</ele>
        <time>2021-04-10T00:10:30.645Z</time>
      </trkpt>
      <trkpt lat="50.47826" lon="3.64454">
        <ele>20.760144</ele>
        <time>2021-04-10T00:10:50.852Z</time>
      </trkpt>
      <trkpt lat="50.47846" lon="3.64432">
        <ele>20.875546</ele>
        <time>2021-04-10T00:10:56.592Z</time>
      </trkpt>
      <trkpt lat="50.47852" lon="3.64427">
        <ele>20.909697</ele>
        <time>2021-04-10T00:10:58.193Z</time>
      </trkpt>
      <trkpt lat="50.4787" lon="3.64417">
        <ele>20.997111</ele>
        <time>2021-04-10T00:11:02.645Z</time>
      </trkpt>
      <trkpt lat="50.47905" lon="3.64403">
        <ele>21.260834</ele>
        <time>2021-04-10T00:11:11.403Z</time>
      </trkpt>
      <trkpt lat="50.4792" lon="3.64399">
        <ele>21.403868</ele>
        <time>2021-04-10T00:11:14.952Z</time>
      </trkpt>
      <trkpt lat="50.47957" lon="3.64394">
        <ele>21.753656</ele>
        <time>2021-04-10T00:11:21.847Z</time>
      </trkpt>
      <trkpt lat="50.47983" lon="3.64386">
        <ele>22.012313</ele>
        <time>2021-04-10T00:11:27.106Z</time>
      </trkpt>
      <trkpt lat="50.48002" lon="3.64457">
        <ele>22.476254</ele>
        <time>2021-04-10T00:11:39.078Z</time>
      </trkpt>
      <trkpt lat="50.48053" lon="3.64648">
        <ele>23.52403</ele>
        <time>2021-04-10T00:12:10.574Z</time>
      </trkpt>
      <trkpt lat="50.48109" lon="3.64842">
        <ele>24.522791</ele>
        <time>2021-04-10T00:12:40.969Z</time>
      </trkpt>
      <trkpt lat="50.48142" lon="3.6493">
        <ele>24.989266</ele>
        <time>2021-04-10T00:12:56.013Z</time>
      </trkpt>
      <trkpt lat="50.48176" lon="3.64979">
        <ele>25.325409</ele>
        <time>2021-04-10T00:13:06.814Z</time>
      </trkpt>
      <trkpt lat="50.48196" lon="3.65">
        <ele>25.511792</ele>
        <time>2021-04-10T00:13:12.466Z</time>
      </trkpt>
      <trkpt lat="50.48278" lon="3.65092">
        <ele>26.422438</ele>
        <time>2021-04-10T00:13:36.546Z</time>
      </trkpt>
      <trkpt lat="50.48364" lon="3.6519">
        <ele>27.375931</ele>
        <time>2021-04-10T00:14:01.964Z</time>
      </trkpt>
      <trkpt lat="50.48512" lon="3.6536">
        <ele>28.89349</ele>
        <time>2021-04-10T00:14:45.341Z</time>
      </trkpt>
      <trkpt lat="50.48555" lon="3.6541">
        <ele>29.237229</ele>
        <time>2021-04-10T00:14:57.903Z</time>
      </trkpt>
      <trkpt lat="50.48684" lon="3.65553">
        <ele>30.077614</ele>
        <time>2021-04-10T00:15:32.770Z</time>
      </trkpt>
      <trkpt lat="50.48755" lon="3.6566">
        <ele>30.486341</ele>
        <time>2021-04-10T00:15:53.934Z</time>
      </trkpt>
      <trkpt lat="50.48808" lon="3.65748">
        <ele>31.103955</ele>
        <time>2021-04-10T00:16:11.380Z</time>
      </trkpt>
      <trkpt lat="50.48825" lon="3.6578">
        <ele>31.327553</ele>
        <time>2021-04-10T00:16:17.485Z</time>
      </trkpt>
      <trkpt lat="50.48963" lon="3.66072">
        <ele>33.831986</ele>
        <time>2021-04-10T00:17:14.755Z</time>
      </trkpt>
      <trkpt lat="50.48979" lon="3.66105">
        <ele>34.156456</ele>
        <time>2021-04-10T00:17:21.556Z</time>
      </trkpt>
      <trkpt lat="50.49003" lon="3.66155">
        <ele>35.153905</ele>
        <time>2021-04-10T00:17:32.032Z</time>
      </trkpt>
      <trkpt lat="50.49011" lon="3.66173">
        <ele>35.542601</ele>
        <time>2021-04-10T00:17:35.819Z</time>
      </trkpt>
      <trkpt lat="50.49022" lon="3.66197">
        <ele>36.071912</ele>
        <time>2021-04-10T00:17:41.042Z</time>
      </trkpt>
      <trkpt lat="50.49086" lon="3.66333">
        <ele>39.114271</ele>
        <time>2021-04-10T00:18:16.766Z</time>
      </trkpt>
      <trkpt lat="50.491" lon="3.66361">
        <ele>39.910356</ele>
        <time>2021-04-10T00:18:25.753Z</time>
      </trkpt>
      <trkpt lat="50.49107" lon="3.66378">
        <ele>40.404808</ele>
        <time>2021-04-10T00:18:30.508Z</time>
      </trkpt>
      <trkpt lat="50.49129" lon="3.66428">
        <ele>41.926944</ele>
        <time>2021-04-10T00:18:45.914Z</time>
      </trkpt>
      <trkpt lat="50.4914" lon="3.66455">
        <ele>42.708207</ele>
        <time>2021-04-10T00:18:53.862Z</time>
      </trkpt>
      <trkpt lat="50.49176" lon="3.66546">
        <ele>45.356384</ele>
        <time>2021-04-10T00:19:18.686Z</time>
      </trkpt>
      <trkpt lat="50.49205" lon="3.66628">
        <ele>46.690822</ele>
        <time>2021-04-10T00:19:37.966Z</time>
      </trkpt>
      <trkpt lat="50.49299" lon="3.66916">
        <ele>48.573308</ele>
        <time>2021-04-10T00:20:23.006Z</time>
      </trkpt>
      <trkpt lat="50.49359" lon="3.67102">
        <ele>49.437723</ele>
        <time>2021-04-10T00:20:51.909Z</time>
      </trkpt>
      <trkpt lat="50.49362" lon="3.67111">
        <ele>49.566213</ele>
        <time>2021-04-10T00:20:53.664Z</time>
      </trkpt>
      <trkpt lat="50.49382" lon="3.67173">
        <ele>50.391202</ele>
        <time>2021-04-10T00:21:05.495Z</time>
      </trkpt>
      <trkpt lat="50.4945" lon="3.67379">
        <ele>53.101432</ele>
        <time>2021-04-10T00:21:49.011Z</time>
      </trkpt>
      <trkpt lat="50.49461" lon="3.67412">
        <ele>53.492134</ele>
        <time>2021-04-10T00:21:56.135Z</time>
      </trkpt>
      <trkpt lat="50.49471" lon="3.6744">
        <ele>53.840199</ele>
        <time>2021-04-10T00:22:02.319Z</time>
      </trkpt>
      <trkpt lat="50.4952" lon="3.67534">
        <ele>55.133841</ele>
        <time>2021-04-10T00:22:23.040Z</time>
      </trkpt>
      <trkpt lat="50.49568" lon="3.67594">
        <ele>55.297267</ele>
        <time>2021-04-10T00:22:36.877Z</time>
      </trkpt>
      <trkpt lat="50.49603" lon="3.67627">
        <ele>54.970809</ele>
        <time>2021-04-10T00:22:45.051Z</time>
      </trkpt>
      <trkpt lat="50.49678" lon="3.67665">
        <ele>54.349782</ele>
        <time>2021-04-10T00:22:58.302Z</time>
      </trkpt>
      <trkpt lat="50.49713" lon="3.67674">
        <ele>53.936883</ele>
        <time>2021-04-10T00:23:03.810Z</time>
      </trkpt>
      <trkpt lat="50.4978" lon="3.67668">
        <ele>52.593862</ele>
        <time>2021-04-10T00:23:13.704Z</time>
      </trkpt>
      <trkpt lat="50.49803" lon="3.67662">
        <ele>52.129155</ele>
        <time>2021-04-10T00:23:17.299Z</time>
      </trkpt>
      <trkpt lat="50.49835" lon="3.67628">
        <ele>51.33797</ele>
        <time>2021-04-10T00:23:29.621Z</time>
      </trkpt>
      <trkpt lat="50.49851" lon="3.676">
        <ele>50.857535</ele>
        <time>2021-04-10T00:23:37.489Z</time>
      </trkpt>
      <trkpt lat="50.49864" lon="3.67575">
        <ele>50.510627</ele>
        <time>2021-04-10T00:23:44.135Z</time>
      </trkpt>
      <trkpt lat="50.49844" lon="3.67579">
        <ele>50.460486</ele>
        <time>2021-04-10T00:23:47.735Z</time>
      </trkpt>
      <trkpt lat="50.49738" lon="3.67546">
        <ele>50.190523</ele>
        <time>2021-04-10T00:24:08.763Z</time>
      </trkpt>
      <trkpt lat="50.49685" lon="3.6754">
        <ele>50.074014</ele>
        <time>2021-04-10T00:24:20.806Z</time>
      </trkpt>
      <trkpt lat="50.49651" lon="3.67521">
        <ele>50.084315</ele>
        <time>2021-04-10T00:24:28.620Z</time>
      </trkpt>
      <trkpt lat="50.49649" lon="3.67513">
        <ele>50.085903</ele>
        <time>2021-04-10T00:24:30.313Z</time>
      </trkpt>
      <trkpt lat="50.49655" lon="3.67478">
        <ele>50.092565</ele>
        <time>2021-04-10T00:24:34.587Z</time>
      </trkpt>
      <trkpt lat="50.49668" lon="3.67419">
        <ele>50.103999</ele>
        <time>2021-04-10T00:24:42.370Z</time>
      </trkpt>
      <trkpt lat="50.49668" lon="3.67397">
        <ele>50.108077</ele>
        <time>2021-04-10T00:24:45.254Z</time>
      </trkpt>
      <trkpt lat="50.49658" lon="3.6734">
        <ele>50.118821</ele>
        <time>2021-04-10T00:24:52.400Z</time>
      </trkpt>
      <trkpt lat="50.49637" lon="3.67263">
        <ele>50.55701</ele>
        <time>2021-04-10T00:25:02.768Z</time>
      </trkpt>
      <trkpt lat="50.49629" lon="3.67195">
        <ele>51.10138</ele>
        <time>2021-04-10T00:25:12.653Z</time>
      </trkpt>
      <trkpt lat="50.49625" lon="3.67181">
        <ele>51.218747</ele>
        <time>2021-04-10T00:25:14.741Z</time>
      </trkpt>
      <trkpt lat="50.49483" lon="3.67447">
        <ele>55.425107</ele>
        <time>2021-04-10T00:26:08.299Z</time>
      </trkpt>
      <trkpt lat="50.49472" lon="3.67467">
        <ele>55.8219</ele>
        <time>2021-04-10T00:26:12.664Z</time>
      </trkpt>
      <trkpt lat="50.49442" lon="3.67523">
        <ele>56.736534</ele>
        <time>2021-04-10T00:26:24.743Z</time>
      </trkpt>
      <trkpt lat="50.49366" lon="3.67675">
        <ele>57.951408</ele>
        <time>2021-04-10T00:26:49.949Z</time>
      </trkpt>
      <trkpt lat="50.4934" lon="3.67759">
        <ele>57.993173</ele>
        <time>2021-04-10T00:26:57.926Z</time>
      </trkpt>
      <trkpt lat="50.49319" lon="3.67844">
        <ele>56.661299</ele>
        <time>2021-04-10T00:27:04.403Z</time>
      </trkpt>
      <trkpt lat="50.49287" lon="3.67916">
        <ele>55.366907</ele>
        <time>2021-04-10T00:27:10.231Z</time>
      </trkpt>
      <trkpt lat="50.49252" lon="3.67956">
        <ele>54.358493</ele>
        <time>2021-04-10T00:27:14.554Z</time>
      </trkpt>
      <trkpt lat="50.49082" lon="3.68126">
        <ele>47.192884</ele>
        <time>2021-04-10T00:27:34.502Z</time>
      </trkpt>
      <trkpt lat="50.48994" lon="3.68214">
        <ele>44.07305</ele>
        <time>2021-04-10T00:27:45.046Z</time>
      </trkpt>
      <trkpt lat="50.48928" lon="3.6828">
        <ele>42.002693</ele>
        <time>2021-04-10T00:27:53.314Z</time>
      </trkpt>
      <trkpt lat="50.489" lon="3.68307">
        <ele>41.550734</ele>
        <time>2021-04-10T00:27:56.943Z</time>
      </trkpt>
      <trkpt lat="50.48862" lon="3.68323">
        <ele>41.010021</ele>
        <time>2021-04-10T00:28:01.431Z</time>
      </trkpt>
      <trkpt lat="50.48846" lon="3.68321">
        <ele>40.800611</ele>
        <time>2021-04-10T00:28:03.144Z</time>
      </trkpt>
      <trkpt lat="50.48825" lon="3.68688">
        <ele>39.402861</ele>
        <time>2021-04-10T00:28:35.269Z</time>
      </trkpt>
      <trkpt lat="50.48804" lon="3.69057">
        <ele>39.453973</ele>
        <time>2021-04-10T00:29:10.749Z</time>
      </trkpt>
      <trkpt lat="50.48798" lon="3.69121">
        <ele>39.536151</ele>
        <time>2021-04-10T00:29:17.191Z</time>
      </trkpt>
      <trkpt lat="50.48791" lon="3.69232">
        <ele>39.677449</ele>
        <time>2021-04-10T00:29:28.513Z</time>
      </trkpt>
      <trkpt lat="50.48758" lon="3.69498">
        <ele>40.2336</ele>
        <time>2021-04-10T00:29:56.822Z</time>
      </trkpt>
      <trkpt lat="50.48708" lon="3.69777">
        <ele>40.415393</ele>
        <time>2021-04-10T00:30:25.849Z</time>
      </trkpt>
      <trkpt lat="50.48629" lon="3.70069">
        <ele>39.336635</ele>
        <time>2021-04-10T00:30:52.316Z</time>
      </trkpt>
      <trkpt lat="50.48608" lon="3.70135">
        <ele>38.757317</ele>
        <time>2021-04-10T00:30:57.911Z</time>
      </trkpt>
      <trkpt lat="50.48599" lon="3.70127">
        <ele>38.61506</ele>
        <time>2021-04-10T00:30:59.119Z</time>
      </trkpt>
      <trkpt lat="50.4854" lon="3.70079">
        <ele>37.653849</ele>
        <time>2021-04-10T00:31:06.681Z</time>
      </trkpt>
      <trkpt lat="50.48526" lon="3.70068">
        <ele>37.429098</ele>
        <time>2021-04-10T00:31:08.493Z</time>
      </trkpt>
      <trkpt lat="50.48517" lon="3.70062">
        <ele>37.290313</ele>
        <time>2021-04-10T00:31:09.490Z</time>
      </trkpt>
      <trkpt lat="50.48488" lon="3.70048">
        <ele>36.846131</ele>
        <time>2021-04-10T00:31:12.984Z</time>
      </trkpt>
      <trkpt lat="50.48456" lon="3.70035">
        <ele>36.353476</ele>
        <time>2021-04-10T00:31:16.835Z</time>
      </trkpt>
      <trkpt lat="50.48422" lon="3.70021">
        <ele>35.83648</ele>
        <time>2021-04-10T00:31:20.872Z</time>
      </trkpt>
      <trkpt lat="50.48383" lon="3.70005">
        <ele>35.231516</ele>
        <time>2021-04-10T00:31:25.530Z</time>
      </trkpt>
      <trkpt lat="50.48364" lon="3.69994">
        <ele>34.932207</ele>
        <time>2021-04-10T00:31:27.746Z</time>
      </trkpt>
      <trkpt lat="50.48362" lon="3.69993">
        <ele>34.908714</ele>
        <time>2021-04-10T00:31:27.924Z</time>
      </trkpt>
      <trkpt lat="50.48316" lon="3.69949">
        <ele>34.10615</ele>
        <time>2021-04-10T00:31:34.273Z</time>
      </trkpt>
      <trkpt lat="50.48304" lon="3.69931">
        <ele>33.875498</ele>
        <time>2021-04-10T00:31:36.214Z</time>
      </trkpt>
      <trkpt lat="50.48272" lon="3.69866">
        <ele>33.249554</ele>
        <time>2021-04-10T00:31:42.526Z</time>
      </trkpt>
      <trkpt lat="50.48266" lon="3.69854">
        <ele>33.1413</ele>
        <time>2021-04-10T00:31:43.565Z</time>
      </trkpt>
      <trkpt lat="50.48264" lon="3.6985">
        <ele>33.100331</ele>
        <time>2021-04-10T00:31:43.977Z</time>
      </trkpt>
      <trkpt lat="50.48261" lon="3.69843">
        <ele>33.038329</ele>
        <time>2021-04-10T00:31:44.572Z</time>
      </trkpt>
      <trkpt lat="50.48254" lon="3.69829">
        <ele>32.901686</ele>
        <time>2021-04-10T00:31:45.992Z</time>
      </trkpt>
      <trkpt lat="50.48241" lon="3.69806">
        <ele>32.67131</ele>
        <time>2021-04-10T00:31:48.380Z</time>
      </trkpt>
      <trkpt lat="50.48228" lon="3.69786">
        <ele>32.456693</ele>
        <time>2021-04-10T00:31:50.596Z</time>
      </trkpt>
      <trkpt lat="50.48197" lon="3.69734">
        <ele>31.915384</ele>
        <time>2021-04-10T00:31:56.144Z</time>
      </trkpt>
      <trkpt lat="50.48176" lon="3.69704">
        <ele>31.619375</ele>
        <time>2021-04-10T00:31:59.554Z</time>
      </trkpt>
      <trkpt lat="50.48146" lon="3.69664">
        <ele>31.222815</ele>
        <time>2021-04-10T00:32:04.205Z</time>
      </trkpt>
      <trkpt lat="50.4808" lon="3.69525">
        <ele>30.119005</ele>
        <time>2021-04-10T00:32:17.686Z</time>
      </trkpt>
      <trkpt lat="50.48058" lon="3.69489">
        <ele>29.822994</ele>
        <time>2021-04-10T00:32:21.916Z</time>
      </trkpt>
      <trkpt lat="50.48054" lon="3.69478">
        <ele>29.749708</ele>
        <time>2021-04-10T00:32:22.967Z</time>
      </trkpt>
      <trkpt lat="50.48048" lon="3.69469">
        <ele>29.676304</ele>
        <time>2021-04-10T00:32:24.093Z</time>
      </trkpt>
      <trkpt lat="50.4804" lon="3.69465">
        <ele>29.602856</ele>
        <time>2021-04-10T00:32:25.208Z</time>
      </trkpt>
      <trkpt lat="50.48039" lon="3.6946">
        <ele>29.574136</ele>
        <time>2021-04-10T00:32:25.591Z</time>
      </trkpt>
      <trkpt lat="50.48036" lon="3.69456">
        <ele>29.545027</ele>
        <time>2021-04-10T00:32:26.005Z</time>
      </trkpt>
      <trkpt lat="50.48033" lon="3.69454">
        <ele>29.516151</ele>
        <time>2021-04-10T00:32:26.385Z</time>
      </trkpt>
      <trkpt lat="50.4803" lon="3.69453">
        <ele>29.48718</ele>
        <time>2021-04-10T00:32:26.774Z</time>
      </trkpt>
      <trkpt lat="50.48027" lon="3.69454">
        <ele>29.457924</ele>
        <time>2021-04-10T00:32:27.162Z</time>
      </trkpt>
      <trkpt lat="50.48024" lon="3.69457">
        <ele>29.430592</ele>
        <time>2021-04-10T00:32:27.557Z</time>
      </trkpt>
      <trkpt lat="50.48022" lon="3.69461">
        <ele>29.402301</ele>
        <time>2021-04-10T00:32:27.993Z</time>
      </trkpt>
      <trkpt lat="50.48021" lon="3.69465">
        <ele>29.37446</ele>
        <time>2021-04-10T00:32:28.403Z</time>
      </trkpt>
      <trkpt lat="50.48021" lon="3.69469">
        <ele>29.352045</ele>
        <time>2021-04-10T00:32:28.758Z</time>
      </trkpt>
      <trkpt lat="50.48021" lon="3.69473">
        <ele>29.330067</ele>
        <time>2021-04-10T00:32:29.108Z</time>
      </trkpt>
      <trkpt lat="50.48021" lon="3.69483">
        <ele>29.272094</ele>
        <time>2021-04-10T00:32:29.961Z</time>
      </trkpt>
      <trkpt lat="50.48019" lon="3.69493">
        <ele>29.213624</ele>
        <time>2021-04-10T00:32:30.763Z</time>
      </trkpt>
      <trkpt lat="50.48017" lon="3.69507">
        <ele>29.131751</ele>
        <time>2021-04-10T00:32:31.850Z</time>
      </trkpt>
      <trkpt lat="50.48002" lon="3.69545">
        <ele>28.878483</ele>
        <time>2021-04-10T00:32:35.394Z</time>
      </trkpt>
      <trkpt lat="50.47979" lon="3.69601">
        <ele>28.492819</ele>
        <time>2021-04-10T00:32:40.538Z</time>
      </trkpt>
      <trkpt lat="50.47969" lon="3.69623">
        <ele>28.310732</ele>
        <time>2021-04-10T00:32:42.676Z</time>
      </trkpt>
      <trkpt lat="50.47959" lon="3.69651">
        <ele>28.067723</ele>
        <time>2021-04-10T00:32:44.947Z</time>
      </trkpt>
      <trkpt lat="50.4795" lon="3.69667">
        <ele>27.899956</ele>
        <time>2021-04-10T00:32:46.657Z</time>
      </trkpt>
      <trkpt lat="50.47923" lon="3.69689">
        <ele>27.521822</ele>
        <time>2021-04-10T00:32:50.381Z</time>
      </trkpt>
      <trkpt lat="50.47903" lon="3.69697">
        <ele>27.278231</ele>
        <time>2021-04-10T00:32:52.704Z</time>
      </trkpt>
      <trkpt lat="50.47834" lon="3.69715">
        <ele>26.42676</ele>
        <time>2021-04-10T00:33:00.931Z</time>
      </trkpt>
      <trkpt lat="50.47751" lon="3.69736">
        <ele>25.545438</ele>
        <time>2021-04-10T00:33:11.008Z</time>
      </trkpt>
      <trkpt lat="50.47567" lon="3.69764">
        <ele>23.771054</ele>
        <time>2021-04-10T00:33:34.083Z</time>
      </trkpt>
      <trkpt lat="50.47471" lon="3.69779">
        <ele>22.900279</ele>
        <time>2021-04-10T00:33:46.104Z</time>
      </trkpt>
      <trkpt lat="50.47363" lon="3.69798">
        <ele>21.962634</ele>
        <time>2021-04-10T00:33:59.436Z</time>
      </trkpt>
      <trkpt lat="50.47186" lon="3.69828">
        <ele>20.656327</ele>
        <time>2021-04-10T00:34:21.932Z</time>
      </trkpt>
      <trkpt lat="50.47133" lon="3.69837">
        <ele>20.323843</ele>
        <time>2021-04-10T00:34:28.993Z</time>
      </trkpt>
      <trkpt lat="50.47116" lon="3.6984">
        <ele>20.220318</ele>
        <time>2021-04-10T00:34:31.240Z</time>
      </trkpt>
      <trkpt lat="50.47017" lon="3.69854">
        <ele>19.918775</ele>
        <time>2021-04-10T00:34:44.847Z</time>
      </trkpt>
      <trkpt lat="50.46941" lon="3.69867">
        <ele>19.722749</ele>
        <time>2021-04-10T00:34:55.716Z</time>
      </trkpt>
      <trkpt lat="50.4693" lon="3.69869">
        <ele>19.695916</ele>
        <time>2021-04-10T00:34:57.234Z</time>
      </trkpt>
      <trkpt lat="50.4692" lon="3.6987">
        <ele>19.683488</ele>
        <time>2021-04-10T00:34:58.690Z</time>
      </trkpt>
      <trkpt lat="50.46904" lon="3.69873">
        <ele>19.694455</ele>
        <time>2021-04-10T00:35:00.904Z</time>
      </trkpt>
      <trkpt lat="50.46518" lon="3.6995">
        <ele>20.113668</ele>
        <time>2021-04-10T00:36:00.714Z</time>
      </trkpt>
      <trkpt lat="50.46495" lon="3.69955">
        <ele>20.14331</ele>
        <time>2021-04-10T00:36:04.622Z</time>
      </trkpt>
      <trkpt lat="50.46479" lon="3.69958">
        <ele>20.162936</ele>
        <time>2021-04-10T00:36:07.132Z</time>
      </trkpt>
      <trkpt lat="50.46475" lon="3.69959">
        <ele>20.168402</ele>
        <time>2021-04-10T00:36:07.997Z</time>
      </trkpt>
      <trkpt lat="50.46095" lon="3.70039">
        <ele>20.156481</ele>
        <time>2021-04-10T00:37:04.580Z</time>
      </trkpt>
      <trkpt lat="50.46038" lon="3.70043">
        <ele>20.120114</ele>
        <time>2021-04-10T00:37:12.700Z</time>
      </trkpt>
      <trkpt lat="50.4602" lon="3.70046">
        <ele>20.111791</ele>
        <time>2021-04-10T00:37:15.102Z</time>
      </trkpt>
      <trkpt lat="50.46018" lon="3.70047">
        <ele>20.110735</ele>
        <time>2021-04-10T00:37:15.450Z</time>
      </trkpt>
      <trkpt lat="50.45911" lon="3.7004">
        <ele>20.06757</ele>
        <time>2021-04-10T00:37:30.788Z</time>
      </trkpt>
      <trkpt lat="50.45838" lon="3.70022">
        <ele>20.074569</ele>
        <time>2021-04-10T00:37:42.079Z</time>
      </trkpt>
      <trkpt lat="50.45765" lon="3.69994">
        <ele>20.228431</ele>
        <time>2021-04-10T00:37:54.175Z</time>
      </trkpt>
      <trkpt lat="50.4569" lon="3.69956">
        <ele>20.387359</ele>
        <time>2021-04-10T00:38:06.545Z</time>
      </trkpt>
      <trkpt lat="50.45686" lon="3.69954">
        <ele>20.397555</ele>
        <time>2021-04-10T00:38:07.303Z</time>
      </trkpt>
      <trkpt lat="50.45619" lon="3.69909">
        <ele>20.38422</ele>
        <time>2021-04-10T00:38:18.240Z</time>
      </trkpt>
      <trkpt lat="50.45615" lon="3.69907">
        <ele>20.382613</ele>
        <time>2021-04-10T00:38:18.837Z</time>
      </trkpt>
      <trkpt lat="50.45607" lon="3.69902">
        <ele>20.379238</ele>
        <time>2021-04-10T00:38:20.135Z</time>
      </trkpt>
      <trkpt lat="50.45547" lon="3.69854">
        <ele>20.352793</ele>
        <time>2021-04-10T00:38:29.966Z</time>
      </trkpt>
      <trkpt lat="50.45289" lon="3.69657">
        <ele>20.121201</ele>
        <time>2021-04-10T00:39:10.706Z</time>
      </trkpt>
      <trkpt lat="50.45264" lon="3.6963">
        <ele>20.156902</ele>
        <time>2021-04-10T00:39:15.519Z</time>
      </trkpt>
      <trkpt lat="50.45246" lon="3.696">
        <ele>20.18877</ele>
        <time>2021-04-10T00:39:19.836Z</time>
      </trkpt>
      <trkpt lat="50.45232" lon="3.69572">
        <ele>20.215702</ele>
        <time>2021-04-10T00:39:23.399Z</time>
      </trkpt>
      <trkpt lat="50.45219" lon="3.69498">
        <ele>20.252985</ele>
        <time>2021-04-10T00:39:31.434Z</time>
      </trkpt>
      <trkpt lat="50.45207" lon="3.68841">
        <ele>20.016429</ele>
        <time>2021-04-10T00:40:32.527Z</time>
      </trkpt>
      <trkpt lat="50.45211" lon="3.68737">
        <ele>19.899536</ele>
        <time>2021-04-10T00:40:41.764Z</time>
      </trkpt>
      <trkpt lat="50.45219" lon="3.68659">
        <ele>19.818447</ele>
        <time>2021-04-10T00:40:48.767Z</time>
      </trkpt>
      <trkpt lat="50.45229" lon="3.68582">
        <ele>19.751023</ele>
        <time>2021-04-10T00:40:55.846Z</time>
      </trkpt>
      <trkpt lat="50.45237" lon="3.68533">
        <ele>19.707478</ele>
        <time>2021-04-10T00:41:00.467Z</time>
      </trkpt>
      <trkpt lat="50.45239" lon="3.68484">
        <ele>19.665407</ele>
        <time>2021-04-10T00:41:05.053Z</time>
      </trkpt>
      <trkpt lat="50.45234" lon="3.68436">
        <ele>19.623271</ele>
        <time>2021-04-10T00:41:09.733Z</time>
      </trkpt>
      <trkpt lat="50.45222" lon="3.6839">
        <ele>19.582558</ele>
        <time>2021-04-10T00:41:14.524Z</time>
      </trkpt>
      <trkpt lat="50.45186" lon="3.68328">
        <ele>19.517808</ele>
        <time>2021-04-10T00:41:22.488Z</time>
      </trkpt>
      <trkpt lat="50.45115" lon="3.68287">
        <ele>19.427988</ele>
        <time>2021-04-10T00:41:33.257Z</time>
      </trkpt>
      <trkpt lat="50.45072" lon="3.68263">
        <ele>19.37112</ele>
        <time>2021-04-10T00:41:39.627Z</time>
      </trkpt>
      <trkpt lat="50.45023" lon="3.68237">
        <ele>19.302846</ele>
        <time>2021-04-10T00:41:46.426Z</time>
      </trkpt>
      <trkpt lat="50.44958" lon="3.68207">
        <ele>19.211256</ele>
        <time>2021-04-10T00:41:56.053Z</time>
      </trkpt>
      <trkpt lat="50.44903" lon="3.68181">
        <ele>19.169446</ele>
        <time>2021-04-10T00:42:05.027Z</time>
      </trkpt>
      <trkpt lat="50.44889" lon="3.68174">
        <ele>19.234616</ele>
        <time>2021-04-10T00:42:07.246Z</time>
      </trkpt>
      <trkpt lat="50.44856" lon="3.68159">
        <ele>19.392489</ele>
        <time>2021-04-10T00:42:12.879Z</time>
      </trkpt>
      <trkpt lat="50.44848" lon="3.68155">
        <ele>19.431</ele>
        <time>2021-04-10T00:42:14.265Z</time>
      </trkpt>
      <trkpt lat="50.44785" lon="3.68127">
        <ele>19.729623</ele>
        <time>2021-04-10T00:42:25.361Z</time>
      </trkpt>
      <trkpt lat="50.44767" lon="3.68121">
        <ele>19.812796</ele>
        <time>2021-04-10T00:42:28.489Z</time>
      </trkpt>
      <trkpt lat="50.44762" lon="3.6812">
        <ele>19.835197</ele>
        <time>2021-04-10T00:42:29.549Z</time>
      </trkpt>
      <trkpt lat="50.44743" lon="3.68114">
        <ele>19.922777</ele>
        <time>2021-04-10T00:42:32.826Z</time>
      </trkpt>
      <trkpt lat="50.44529" lon="3.68067">
        <ele>21.210825</ele>
        <time>2021-04-10T00:43:10.418Z</time>
      </trkpt>
      <trkpt lat="50.44444" lon="3.6805">
        <ele>21.589089</ele>
        <time>2021-04-10T00:43:24.254Z</time>
      </trkpt>
      <trkpt lat="50.4443" lon="3.68047">
        <ele>21.652254</ele>
        <time>2021-04-10T00:43:26.626Z</time>
      </trkpt>
      <trkpt lat="50.44377" lon="3.68036">
        <ele>21.883332</ele>
        <time>2021-04-10T00:43:35.486Z</time>
      </trkpt>
      <trkpt lat="50.44365" lon="3.67996">
        <ele>21.957616</ele>
        <time>2021-04-10T00:43:41.522Z</time>
      </trkpt>
      <trkpt lat="50.44299" lon="3.67775">
        <ele>22.323523</ele>
        <time>2021-04-10T00:44:14.949Z</time>
      </trkpt>
      <trkpt lat="50.44279" lon="3.67665">
        <ele>21.718088</ele>
        <time>2021-04-10T00:44:28.935Z</time>
      </trkpt>
      <trkpt lat="50.44276" lon="3.676">
        <ele>21.370759</ele>
        <time>2021-04-10T00:44:36.285Z</time>
      </trkpt>
      <trkpt lat="50.44275" lon="3.67527">
        <ele>20.981857</ele>
        <time>2021-04-10T00:44:44.197Z</time>
      </trkpt>
      <trkpt lat="50.44293" lon="3.67507">
        <ele>20.719926</ele>
        <time>2021-04-10T00:44:47.655Z</time>
      </trkpt>
      <trkpt lat="50.44368" lon="3.67404">
        <ele>18.916097</ele>
        <time>2021-04-10T00:45:03.409Z</time>
      </trkpt>
      <trkpt lat="50.44374" lon="3.67398">
        <ele>18.785613</ele>
        <time>2021-04-10T00:45:04.479Z</time>
      </trkpt>
      <trkpt lat="50.44402" lon="3.6737">
        <ele>18.196614</ele>
        <time>2021-04-10T00:45:09.554Z</time>
      </trkpt>
      <trkpt lat="50.44434" lon="3.6735">
        <ele>17.597082</ele>
        <time>2021-04-10T00:45:15.216Z</time>
      </trkpt>
      <trkpt lat="50.44454" lon="3.67314">
        <ele>17.429258</ele>
        <time>2021-04-10T00:45:20.443Z</time>
      </trkpt>
      <trkpt lat="50.4452" lon="3.67162">
        <ele>16.782401</ele>
        <time>2021-04-10T00:45:42.343Z</time>
      </trkpt>
      <trkpt lat="50.44541" lon="3.67117">
        <ele>16.637832</ele>
        <time>2021-04-10T00:45:49.586Z</time>
      </trkpt>
      <trkpt lat="50.446" lon="3.66983">
        <ele>16.989121</ele>
        <time>2021-04-10T00:46:12.267Z</time>
      </trkpt>
      <trkpt lat="50.44635" lon="3.66857">
        <ele>17.265152</ele>
        <time>2021-04-10T00:46:31.714Z</time>
      </trkpt>
      <trkpt lat="50.44641" lon="3.66842">
        <ele>17.290636</ele>
        <time>2021-04-10T00:46:34.265Z</time>
      </trkpt>
      <trkpt lat="50.44595" lon="3.6678">
        <ele>17.426031</ele>
        <time>2021-04-10T00:46:47.423Z</time>
      </trkpt>
      <trkpt lat="50.44538" lon="3.66721">
        <ele>17.57686</ele>
        <time>2021-04-10T00:47:01.733Z</time>
      </trkpt>
      <trkpt lat="50.44463" lon="3.66694">
        <ele>17.478901</ele>
        <time>2021-04-10T00:47:16.963Z</time>
      </trkpt>
      <trkpt lat="50.44386" lon="3.66585">
        <ele>17.197173</ele>
        <time>2021-04-10T00:47:36.478Z</time>
      </trkpt>
      <trkpt lat="50.44377" lon="3.66572">
        <ele>17.16384</ele>
        <time>2021-04-10T00:47:38.754Z</time>
      </trkpt>
      <trkpt lat="50.44361" lon="3.66549">
        <ele>17.113323</ele>
        <time>2021-04-10T00:47:42.936Z</time>
      </trkpt>
      <trkpt lat="50.44334" lon="3.66483">
        <ele>17.016163</ele>
        <time>2021-04-10T00:47:52.374Z</time>
      </trkpt>
      <trkpt lat="50.44336" lon="3.66403">
        <ele>16.917201</ele>
        <time>2021-04-10T00:48:02.224Z</time>
      </trkpt>
      <trkpt lat="50.44325" lon="3.66343">
        <ele>16.838784</ele>
        <time>2021-04-10T00:48:10.138Z</time>
      </trkpt>
      <trkpt lat="50.44249" lon="3.66181">
        <ele>16.922396</ele>
        <time>2021-04-10T00:48:36.909Z</time>
      </trkpt>
      <trkpt lat="50.44235" lon="3.66142">
        <ele>16.960776</ele>
        <time>2021-04-10T00:48:42.916Z</time>
      </trkpt>
      <trkpt lat="50.44242" lon="3.66129">
        <ele>16.975084</ele>
        <time>2021-04-10T00:48:45.142Z</time>
      </trkpt>
      <trkpt lat="50.4427" lon="3.66126">
        <ele>17.012849</ele>
        <time>2021-04-10T00:48:50.999Z</time>
      </trkpt>
      <trkpt lat="50.44285" lon="3.66116">
        <ele>17.029272</ele>
        <time>2021-04-10T00:48:54.404Z</time>
      </trkpt>
      <trkpt lat="50.44295" lon="3.66099">
        <ele>17.033089</ele>
        <time>2021-04-10T00:48:57.572Z</time>
      </trkpt>
      <trkpt lat="50.44299" lon="3.66077">
        <ele>17.036688</ele>
        <time>2021-04-10T00:49:00.533Z</time>
      </trkpt>
      <trkpt lat="50.443" lon="3.65979">
        <ele>17.05234</ele>
        <time>2021-04-10T00:49:13.372Z</time>
      </trkpt>
      <trkpt lat="50.44297" lon="3.65958">
        <ele>17.055787</ele>
        <time>2021-04-10T00:49:16.115Z</time>
      </trkpt>
      <trkpt lat="50.44238" lon="3.65996">
        <ele>17.071966</ele>
        <time>2021-04-10T00:49:25.539Z</time>
      </trkpt>
      <trkpt lat="50.44206" lon="3.66013">
        <ele>17.038188</ele>
        <time>2021-04-10T00:49:30.418Z</time>
      </trkpt>
      <trkpt lat="50.44173" lon="3.6603">
        <ele>16.996733</ele>
        <time>2021-04-10T00:49:35.297Z</time>
      </trkpt>
      <trkpt lat="50.43943" lon="3.66151">
        <ele>16.981528</ele>
        <time>2021-04-10T00:50:10.243Z</time>
      </trkpt>
      <trkpt lat="50.43918" lon="3.66159">
        <ele>17.007148</ele>
        <time>2021-04-10T00:50:14.284Z</time>
      </trkpt>
      <trkpt lat="50.439" lon="3.66161">
        <ele>17.025189</ele>
        <time>2021-04-10T00:50:17.331Z</time>
      </trkpt>
      <trkpt lat="50.43884" lon="3.66163">
        <ele>17.087226</ele>
        <time>2021-04-10T00:50:19.954Z</time>
      </trkpt>
      <trkpt lat="50.43849" lon="3.66163">
        <ele>17.415118</ele>
        <time>2021-04-10T00:50:26.245Z</time>
      </trkpt>
      <trkpt lat="50.43832" lon="3.66152">
        <ele>17.590868</ele>
        <time>2021-04-10T00:50:29.699Z</time>
      </trkpt>
      <trkpt lat="50.43816" lon="3.6614">
        <ele>17.75502</ele>
        <time>2021-04-10T00:50:32.938Z</time>
      </trkpt>
      <trkpt lat="50.43814" lon="3.66138">
        <ele>17.781674</ele>
        <time>2021-04-10T00:50:33.443Z</time>
      </trkpt>
      <trkpt lat="50.43763" lon="3.66086">
        <ele>18.349832</ele>
        <time>2021-04-10T00:50:45.097Z</time>
      </trkpt>
      <trkpt lat="50.43726" lon="3.66051">
        <ele>18.74316</ele>
        <time>2021-04-10T00:50:53.784Z</time>
      </trkpt>
      <trkpt lat="50.43704" lon="3.66035">
        <ele>18.903157</ele>
        <time>2021-04-10T00:50:58.637Z</time>
      </trkpt>
      <trkpt lat="50.43666" lon="3.66024">
        <ele>19.15003</ele>
        <time>2021-04-10T00:51:05.856Z</time>
      </trkpt>
      <trkpt lat="50.43628" lon="3.6603">
        <ele>19.399262</ele>
        <time>2021-04-10T00:51:12.833Z</time>
      </trkpt>
      <trkpt lat="50.43608" lon="3.66041">
        <ele>19.536657</ele>
        <time>2021-04-10T00:51:16.671Z</time>
      </trkpt>
      <trkpt lat="50.43557" lon="3.6607">
        <ele>19.88248</ele>
        <time>2021-04-10T00:51:24.711Z</time>
      </trkpt>
      <trkpt lat="50.43531" lon="3.66097">
        <ele>19.713792</ele>
        <time>2021-04-10T00:51:29.007Z</time>
      </trkpt>
      <trkpt lat="50.43478" lon="3.66164">
        <ele>19.347819</ele>
        <time>2021-04-10T00:51:38.056Z</time>
      </trkpt>
      <trkpt lat="50.43455" lon="3.66187">
        <ele>19.199598</ele>
        <time>2021-04-10T00:51:41.466Z</time>
      </trkpt>
      <trkpt lat="50.43427" lon="3.66201">
        <ele>19.043926</ele>
        <time>2021-04-10T00:51:45.041Z</time>
      </trkpt>
      <trkpt lat="50.43383" lon="3.66205">
        <ele>18.829883</ele>
        <time>2021-04-10T00:51:50.555Z</time>
      </trkpt>
      <trkpt lat="50.43219" lon="3.66179">
        <ele>18.152975</ele>
        <time>2021-04-10T00:52:12.987Z</time>
      </trkpt>
      <trkpt lat="50.42878" lon="3.66042">
        <ele>18.762926</ele>
        <time>2021-04-10T00:53:07.778Z</time>
      </trkpt>
      <trkpt lat="50.42844" lon="3.66039">
        <ele>19.028934</ele>
        <time>2021-04-10T00:53:13.393Z</time>
      </trkpt>
      <trkpt lat="50.42815" lon="3.66047">
        <ele>19.271023</ele>
        <time>2021-04-10T00:53:18.291Z</time>
      </trkpt>
      <trkpt lat="50.42715" lon="3.66093">
        <ele>20.111805</ele>
        <time>2021-04-10T00:53:37.690Z</time>
      </trkpt>
      <trkpt lat="50.42669" lon="3.661">
        <ele>20.617264</ele>
        <time>2021-04-10T00:53:46.959Z</time>
      </trkpt>
      <trkpt lat="50.42637" lon="3.66089">
        <ele>21.011938</ele>
        <time>2021-04-10T00:53:53.563Z</time>
      </trkpt>
      <trkpt lat="50.42611" lon="3.66079">
        <ele>21.331525</ele>
        <time>2021-04-10T00:53:58.894Z</time>
      </trkpt>
      <trkpt lat="50.42601" lon="3.66075">
        <ele>21.45806</ele>
        <time>2021-04-10T00:54:00.987Z</time>
      </trkpt>
      <trkpt lat="50.42586" lon="3.66071">
        <ele>21.645541</ele>
        <time>2021-04-10T00:54:04.122Z</time>
      </trkpt>
      <trkpt lat="50.42554" lon="3.66073">
        <ele>22.02318</ele>
        <time>2021-04-10T00:54:10.675Z</time>
      </trkpt>
      <trkpt lat="50.42437" lon="3.66073">
        <ele>22.703157</ele>
        <time>2021-04-10T00:54:32.163Z</time>
      </trkpt>
      <trkpt lat="50.42412" lon="3.6607">
        <ele>22.792667</ele>
        <time>2021-04-10T00:54:36.301Z</time>
      </trkpt>
      <trkpt lat="50.42413" lon="3.66022">
        <ele>22.900555</ele>
        <time>2021-04-10T00:54:40.865Z</time>
      </trkpt>
      <trkpt lat="50.42369" lon="3.65755">
        <ele>22.173945</ele>
        <time>2021-04-10T00:55:04.048Z</time>
      </trkpt>
      <trkpt lat="50.42364" lon="3.6573">
        <ele>22.06975</ele>
        <time>2021-04-10T00:55:06.083Z</time>
      </trkpt>
      <trkpt lat="50.42362" lon="3.65719">
        <ele>22.021835</ele>
        <time>2021-04-10T00:55:07.045Z</time>
      </trkpt>
      <trkpt lat="50.42348" lon="3.65673">
        <ele>21.803959</ele>
        <time>2021-04-10T00:55:11.022Z</time>
      </trkpt>
      <trkpt lat="50.42324" lon="3.65593">
        <ele>21.381501</ele>
        <time>2021-04-10T00:55:17.962Z</time>
      </trkpt>
      <trkpt lat="50.4231" lon="3.65473">
        <ele>20.79504</ele>
        <time>2021-04-10T00:55:27.770Z</time>
      </trkpt>
      <trkpt lat="50.42301" lon="3.65431">
        <ele>20.582482</ele>
        <time>2021-04-10T00:55:31.554Z</time>
      </trkpt>
      <trkpt lat="50.42275" lon="3.65335">
        <ele>20.381097</ele>
        <time>2021-04-10T00:55:40.866Z</time>
      </trkpt>
      <trkpt lat="50.4227" lon="3.65316">
        <ele>20.344761</ele>
        <time>2021-04-10T00:55:42.801Z</time>
      </trkpt>
      <trkpt lat="50.42252" lon="3.65251">
        <ele>20.217081</ele>
        <time>2021-04-10T00:55:49.466Z</time>
      </trkpt>
      <trkpt lat="50.4223" lon="3.6515">
        <ele>20.009513</ele>
        <time>2021-04-10T00:55:58.511Z</time>
      </trkpt>
      <trkpt lat="50.4222" lon="3.6505">
        <ele>19.719557</ele>
        <time>2021-04-10T00:56:07.511Z</time>
      </trkpt>
      <trkpt lat="50.42213" lon="3.64972">
        <ele>19.491412</ele>
        <time>2021-04-10T00:56:14.247Z</time>
      </trkpt>
      <trkpt lat="50.42212" lon="3.6494">
        <ele>19.400963</ele>
        <time>2021-04-10T00:56:17.055Z</time>
      </trkpt>
      <trkpt lat="50.42222" lon="3.64757">
        <ele>18.898076</ele>
        <time>2021-04-10T00:56:32.073Z</time>
      </trkpt>
      <trkpt lat="50.42221" lon="3.64743">
        <ele>18.860303</ele>
        <time>2021-04-10T00:56:33.348Z</time>
      </trkpt>
      <trkpt lat="50.42209" lon="3.64645">
        <ele>18.594643</ele>
        <time>2021-04-10T00:56:42.328Z</time>
      </trkpt>
      <trkpt lat="50.42194" lon="3.64535">
        <ele>18.481801</ele>
        <time>2021-04-10T00:56:52.419Z</time>
      </trkpt>
      <trkpt lat="50.42163" lon="3.64361">
        <ele>18.468144</ele>
        <time>2021-04-10T00:57:09.278Z</time>
      </trkpt>
      <trkpt lat="50.42154" lon="3.64275">
        <ele>18.72051</ele>
        <time>2021-04-10T00:57:18.527Z</time>
      </trkpt>
      <trkpt lat="50.42153" lon="3.64217">
        <ele>18.971953</ele>
        <time>2021-04-10T00:57:24.874Z</time>
      </trkpt>
      <trkpt lat="50.42174" lon="3.64086">
        <ele>19.566325</ele>
        <time>2021-04-10T00:57:40.630Z</time>
      </trkpt>
      <trkpt lat="50.4221" lon="3.63947">
        <ele>20.167382</ele>
        <time>2021-04-10T00:57:58.298Z</time>
      </trkpt>
      <trkpt lat="50.42206" lon="3.63781">
        <ele>20.799715</ele>
        <time>2021-04-10T00:58:16.496Z</time>
      </trkpt>
      <trkpt lat="50.42209" lon="3.63728">
        <ele>20.671465</ele>
        <time>2021-04-10T00:58:21.263Z</time>
      </trkpt>
      <trkpt lat="50.42217" lon="3.63662">
        <ele>20.507233</ele>
        <time>2021-04-10T00:58:27.099Z</time>
      </trkpt>
      <trkpt lat="50.42229" lon="3.63586">
        <ele>20.315727</ele>
        <time>2021-04-10T00:58:33.582Z</time>
      </trkpt>
      <trkpt lat="50.42234" lon="3.63533">
        <ele>20.183925</ele>
        <time>2021-04-10T00:58:38.003Z</time>
      </trkpt>
      <trkpt lat="50.42233" lon="3.6348">
        <ele>20.121147</ele>
        <time>2021-04-10T00:58:42.352Z</time>
      </trkpt>
      <trkpt lat="50.42225" lon="3.63425">
        <ele>20.130032</ele>
        <time>2021-04-10T00:58:46.992Z</time>
      </trkpt>
      <trkpt lat="50.42197" lon="3.63345">
        <ele>20.144552</ele>
        <time>2021-04-10T00:58:54.954Z</time>
      </trkpt>
      <trkpt lat="50.42153" lon="3.63275">
        <ele>20.160177</ele>
        <time>2021-04-10T00:59:05.827Z</time>
      </trkpt>
      <trkpt lat="50.42123" lon="3.63212">
        <ele>20.507236</ele>
        <time>2021-04-10T00:59:15.702Z</time>
      </trkpt>
      <trkpt lat="50.42106" lon="3.63141">
        <ele>20.900343</ele>
        <time>2021-04-10T00:59:25.132Z</time>
      </trkpt>
      <trkpt lat="50.42101" lon="3.63095">
        <ele>21.139912</ele>
        <time>2021-04-10T00:59:30.834Z</time>
      </trkpt>
      <trkpt lat="50.42103" lon="3.63039">
        <ele>21.425813</ele>
        <time>2021-04-10T00:59:37.315Z</time>
      </trkpt>
      <trkpt lat="50.42101" lon="3.63008">
        <ele>21.589226</ele>
        <time>2021-04-10T00:59:40.623Z</time>
      </trkpt>
      <trkpt lat="50.42056" lon="3.62684">
        <ele>21.490442</ele>
        <time>2021-04-10T01:00:10.932Z</time>
      </trkpt>
      <trkpt lat="50.42058" lon="3.62672">
        <ele>21.476301</ele>
        <time>2021-04-10T01:00:12.067Z</time>
      </trkpt>
      <trkpt lat="50.42118" lon="3.6255">
        <ele>21.307793</ele>
        <time>2021-04-10T01:00:25.905Z</time>
      </trkpt>
      <trkpt lat="50.42179" lon="3.62376">
        <ele>20.891953</ele>
        <time>2021-04-10T01:00:43.935Z</time>
      </trkpt>
      <trkpt lat="50.42183" lon="3.62354">
        <ele>20.831905</ele>
        <time>2021-04-10T01:00:45.889Z</time>
      </trkpt>
      <trkpt lat="50.42177" lon="3.62308">
        <ele>20.707588</ele>
        <time>2021-04-10T01:00:49.895Z</time>
      </trkpt>
      <trkpt lat="50.42158" lon="3.62265">
        <ele>20.569945</ele>
        <time>2021-04-10T01:00:54.239Z</time>
      </trkpt>
      <trkpt lat="50.42156" lon="3.62243">
        <ele>20.50966</ele>
        <time>2021-04-10T01:00:56.111Z</time>
      </trkpt>
      <trkpt lat="50.42191" lon="3.61716">
        <ele>17.708338</ele>
        <time>2021-04-10T01:01:38.254Z</time>
      </trkpt>
      <trkpt lat="50.42189" lon="3.61697">
        <ele>17.608405</ele>
        <time>2021-04-10T01:01:39.873Z</time>
      </trkpt>
      <trkpt lat="50.42187" lon="3.61683">
        <ele>17.531668</ele>
        <time>2021-04-10T01:01:41.009Z</time>
      </trkpt>
      <trkpt lat="50.42191" lon="3.61665">
        <ele>17.446011</ele>
        <time>2021-04-10T01:01:42.719Z</time>
      </trkpt>
      <trkpt lat="50.42204" lon="3.6162">
        <ele>17.297809</ele>
        <time>2021-04-10T01:01:46.822Z</time>
      </trkpt>
      <trkpt lat="50.42273" lon="3.61492">
        <ele>16.799212</ele>
        <time>2021-04-10T01:02:00.977Z</time>
      </trkpt>
      <trkpt lat="50.42289" lon="3.61369">
        <ele>16.519365</ele>
        <time>2021-04-10T01:02:12.178Z</time>
      </trkpt>
      <trkpt lat="50.42405" lon="3.61088">
        <ele>16.262192</ele>
        <time>2021-04-10T01:02:42.113Z</time>
      </trkpt>
      <trkpt lat="50.42427" lon="3.61022">
        <ele>16.311804</ele>
        <time>2021-04-10T01:02:49.547Z</time>
      </trkpt>
      <trkpt lat="50.42464" lon="3.60896">
        <ele>16.583924</ele>
        <time>2021-04-10T01:03:04.098Z</time>
      </trkpt>
      <trkpt lat="50.42474" lon="3.60863">
        <ele>16.733824</ele>
        <time>2021-04-10T01:03:08.163Z</time>
      </trkpt>
      <trkpt lat="50.42522" lon="3.60706">
        <ele>17.460355</ele>
        <time>2021-04-10T01:03:28.250Z</time>
      </trkpt>
      <trkpt lat="50.42544" lon="3.60527">
        <ele>17.825611</ele>
        <time>2021-04-10T01:03:48.172Z</time>
      </trkpt>
      <trkpt lat="50.42548" lon="3.60445">
        <ele>17.968891</ele>
        <time>2021-04-10T01:03:55.859Z</time>
      </trkpt>
      <trkpt lat="50.42547" lon="3.604">
        <ele>18.007141</ele>
        <time>2021-04-10T01:04:00.014Z</time>
      </trkpt>
      <trkpt lat="50.42545" lon="3.60375">
        <ele>17.902629</ele>
        <time>2021-04-10T01:04:02.025Z</time>
      </trkpt>
      <trkpt lat="50.42548" lon="3.60352">
        <ele>17.805572</ele>
        <time>2021-04-10T01:04:04.191Z</time>
      </trkpt>
      <trkpt lat="50.42569" lon="3.60276">
        <ele>17.462819</ele>
        <time>2021-04-10T01:04:10.912Z</time>
      </trkpt>
      <trkpt lat="50.42579" lon="3.60238">
        <ele>17.293477</ele>
        <time>2021-04-10T01:04:14.252Z</time>
      </trkpt>
      <trkpt lat="50.42569" lon="3.59813">
        <ele>15.376093</ele>
        <time>2021-04-10T01:04:48.437Z</time>
      </trkpt>
      <trkpt lat="50.42569" lon="3.59787">
        <ele>15.322996</ele>
        <time>2021-04-10T01:04:50.692Z</time>
      </trkpt>
      <trkpt lat="50.42567" lon="3.59772">
        <ele>15.292226</ele>
        <time>2021-04-10T01:04:52.148Z</time>
      </trkpt>
      <trkpt lat="50.42567" lon="3.59674">
        <ele>15.092711</ele>
        <time>2021-04-10T01:05:00.846Z</time>
      </trkpt>
      <trkpt lat="50.42573" lon="3.59591">
        <ele>14.922253</ele>
        <time>2021-04-10T01:05:08.542Z</time>
      </trkpt>
      <trkpt lat="50.42572" lon="3.59574">
        <ele>14.889048</ele>
        <time>2021-04-10T01:05:10.061Z</time>
      </trkpt>
      <trkpt lat="50.42491" lon="3.59455">
        <ele>14.798664</ele>
        <time>2021-04-10T01:05:26.204Z</time>
      </trkpt>
      <trkpt lat="50.42309" lon="3.59188">
        <ele>14.729798</ele>
        <time>2021-04-10T01:06:02.629Z</time>
      </trkpt>
      <trkpt lat="50.41948" lon="3.58665">
        <ele>16.844708</ele>
        <time>2021-04-10T01:07:25.250Z</time>
      </trkpt>
      <trkpt lat="50.41941" lon="3.58645">
        <ele>16.898965</ele>
        <time>2021-04-10T01:07:27.578Z</time>
      </trkpt>
      <trkpt lat="50.41968" lon="3.58616">
        <ele>17.021973</ele>
        <time>2021-04-10T01:07:32.598Z</time>
      </trkpt>
      <trkpt lat="50.41997" lon="3.5859">
        <ele>16.971805</ele>
        <time>2021-04-10T01:07:37.500Z</time>
      </trkpt>
      <trkpt lat="50.42195" lon="3.58398">
        <ele>16.791585</ele>
        <time>2021-04-10T01:08:10.029Z</time>
      </trkpt>
      <trkpt lat="50.42328" lon="3.5827">
        <ele>17.254398</ele>
        <time>2021-04-10T01:08:35.395Z</time>
      </trkpt>
      <trkpt lat="50.42363" lon="3.58241">
        <ele>17.500263</ele>
        <time>2021-04-10T01:08:42.480Z</time>
      </trkpt>
      <trkpt lat="50.4248" lon="3.58165">
        <ele>18.102947</ele>
        <time>2021-04-10T01:09:05.210Z</time>
      </trkpt>
      <trkpt lat="50.4256" lon="3.58112">
        <ele>18.308084</ele>
        <time>2021-04-10T01:09:18.554Z</time>
      </trkpt>
      <trkpt lat="50.42574" lon="3.58103">
        <ele>18.34454</ele>
        <time>2021-04-10T01:09:20.777Z</time>
      </trkpt>
      <trkpt lat="50.42637" lon="3.58061">
        <ele>18.223453</ele>
        <time>2021-04-10T01:09:34.322Z</time>
      </trkpt>
      <trkpt lat="50.42683" lon="3.58031">
        <ele>17.975054</ele>
        <time>2021-04-10T01:09:43.683Z</time>
      </trkpt>
      <trkpt lat="50.42716" lon="3.58012">
        <ele>17.79629</ele>
        <time>2021-04-10T01:09:50.134Z</time>
      </trkpt>
      <trkpt lat="50.42722" lon="3.5801">
        <ele>17.764653</ele>
        <time>2021-04-10T01:09:51.241Z</time>
      </trkpt>
      <trkpt lat="50.42733" lon="3.58009">
        <ele>17.712214</ele>
        <time>2021-04-10T01:09:53.034Z</time>
      </trkpt>
      <trkpt lat="50.42852" lon="3.57996">
        <ele>17.100015</ele>
        <time>2021-04-10T01:10:14.488Z</time>
      </trkpt>
      <trkpt lat="50.4286" lon="3.57997">
        <ele>17.058693</ele>
        <time>2021-04-10T01:10:16.000Z</time>
      </trkpt>
      <trkpt lat="50.42862" lon="3.57997">
        <ele>17.052433</ele>
        <time>2021-04-10T01:10:16.198Z</time>
      </trkpt>
      <trkpt lat="50.42873" lon="3.58">
        <ele>16.991303</ele>
        <time>2021-04-10T01:10:18.324Z</time>
      </trkpt>
      <trkpt lat="50.42875" lon="3.58004">
        <ele>16.975282</ele>
        <time>2021-04-10T01:10:18.772Z</time>
      </trkpt>
      <trkpt lat="50.42878" lon="3.58007">
        <ele>16.95907</ele>
        <time>2021-04-10T01:10:19.243Z</time>
      </trkpt>
      <trkpt lat="50.42882" lon="3.5801">
        <ele>16.934356</ele>
        <time>2021-04-10T01:10:19.834Z</time>
      </trkpt>
      <trkpt lat="50.42892" lon="3.5801">
        <ele>16.88487</ele>
        <time>2021-04-10T01:10:21.119Z</time>
      </trkpt>
      <trkpt lat="50.429" lon="3.58001">
        <ele>16.834996</ele>
        <time>2021-04-10T01:10:22.451Z</time>
      </trkpt>
      <trkpt lat="50.42901" lon="3.57996">
        <ele>16.816716</ele>
        <time>2021-04-10T01:10:23.009Z</time>
      </trkpt>
      <trkpt lat="50.42912" lon="3.57988">
        <ele>16.756477</ele>
        <time>2021-04-10T01:10:24.656Z</time>
      </trkpt>
      <trkpt lat="50.42918" lon="3.57986">
        <ele>16.723735</ele>
        <time>2021-04-10T01:10:25.453Z</time>
      </trkpt>
      <trkpt lat="50.42967" lon="3.57975">
        <ele>16.652761</ele>
        <time>2021-04-10T01:10:32.441Z</time>
      </trkpt>
      <trkpt lat="50.42984" lon="3.57971">
        <ele>16.703145</ele>
        <time>2021-04-10T01:10:35.018Z</time>
      </trkpt>
      <trkpt lat="50.43005" lon="3.57964">
        <ele>16.768526</ele>
        <time>2021-04-10T01:10:38.471Z</time>
      </trkpt>
      <trkpt lat="50.43009" lon="3.57963">
        <ele>16.781163</ele>
        <time>2021-04-10T01:10:39.053Z</time>
      </trkpt>
      <trkpt lat="50.43015" lon="3.57959">
        <ele>16.80036</ele>
        <time>2021-04-10T01:10:40.101Z</time>
      </trkpt>
      <trkpt lat="50.43015" lon="3.57956">
        <ele>16.807116</ele>
        <time>2021-04-10T01:10:40.391Z</time>
      </trkpt>
      <trkpt lat="50.43014" lon="3.57947">
        <ele>16.825184</ele>
        <time>2021-04-10T01:10:41.151Z</time>
      </trkpt>
      <trkpt lat="50.43029" lon="3.57942">
        <ele>16.870531</ele>
        <time>2021-04-10T01:10:43.581Z</time>
      </trkpt>
      <trkpt lat="50.4303" lon="3.57942">
        <ele>16.87607</ele>
        <time>2021-04-10T01:10:44.158Z</time>
      </trkpt>
      <trkpt lat="50.43117" lon="3.57893">
        <ele>17.199419</ele>
        <time>2021-04-10T01:10:59.674Z</time>
      </trkpt>
      <trkpt lat="50.43138" lon="3.57882">
        <ele>17.375683</ele>
        <time>2021-04-10T01:11:03.821Z</time>
      </trkpt>
      <trkpt lat="50.43119" lon="3.5784">
        <ele>17.64492</ele>
        <time>2021-04-10T01:11:11.838Z</time>
      </trkpt>
      <trkpt lat="50.43126" lon="3.57829">
        <ele>17.724248</ele>
        <time>2021-04-10T01:11:13.970Z</time>
      </trkpt>
      <trkpt lat="50.43131" lon="3.57818">
        <ele>17.791771</ele>
        <time>2021-04-10T01:11:15.776Z</time>
      </trkpt>
      <trkpt lat="50.43116" lon="3.57767">
        <ele>18.084254</ele>
        <time>2021-04-10T01:11:23.888Z</time>
      </trkpt>
      <trkpt lat="50.43091" lon="3.57712">
        <ele>18.435139</ele>
        <time>2021-04-10T01:11:34.136Z</time>
      </trkpt>
      <trkpt lat="50.43073" lon="3.57679">
        <ele>18.71229</ele>
        <time>2021-04-10T01:11:40.949Z</time>
      </trkpt>
      <trkpt lat="50.43065" lon="3.57647">
        <ele>19.056489</ele>
        <time>2021-04-10T01:11:46.322Z</time>
      </trkpt>
      <trkpt lat="50.43052" lon="3.57637">
        <ele>19.278634</ele>
        <time>2021-04-10T01:11:50.005Z</time>
      </trkpt>
      <trkpt lat="50.43033" lon="3.57622">
        <ele>19.607315</ele>
        <time>2021-04-10T01:11:55.366Z</time>
      </trkpt>
      <trkpt lat="50.43018" lon="3.57598">
        <ele>19.936366</ele>
        <time>2021-04-10T01:12:00.942Z</time>
      </trkpt>
      <trkpt lat="50.43015" lon="3.57583">
        <ele>20.093237</ele>
        <time>2021-04-10T01:12:04.340Z</time>
      </trkpt>
      <trkpt lat="50.43014" lon="3.57576">
        <ele>20.159936</ele>
        <time>2021-04-10T01:12:05.433Z</time>
      </trkpt>
      <trkpt lat="50.43024" lon="3.57562">
        <ele>20.37157</ele>
        <time>2021-04-10T01:12:09.038Z</time>
      </trkpt>
      <trkpt lat="50.43042" lon="3.57538">
        <ele>20.726392</ele>
        <time>2021-04-10T01:12:15.652Z</time>
      </trkpt>
      <trkpt lat="50.43114" lon="3.57438">
        <ele>22.208462</ele>
        <time>2021-04-10T01:12:41.199Z</time>
      </trkpt>
      <trkpt lat="50.43116" lon="3.57435">
        <ele>22.253609</ele>
        <time>2021-04-10T01:12:42.687Z</time>
      </trkpt>
      <trkpt lat="50.43141" lon="3.57476">
        <ele>22.807854</ele>
        <time>2021-04-10T01:12:50.829Z</time>
      </trkpt>
      <trkpt lat="50.43158" lon="3.57502">
        <ele>23.163755</ele>
        <time>2021-04-10T01:12:55.330Z</time>
      </trkpt>
      <trkpt lat="50.4317" lon="3.57524">
        <ele>23.444876</ele>
        <time>2021-04-10T01:12:59.343Z</time>
      </trkpt>
      <trkpt lat="50.43191" lon="3.57568">
        <ele>23.984534</ele>
        <time>2021-04-10T01:13:06.481Z</time>
      </trkpt>
      <trkpt lat="50.43194" lon="3.57575">
        <ele>24.072641</ele>
        <time>2021-04-10T01:13:07.580Z</time>
      </trkpt>
      <trkpt lat="50.43208" lon="3.57607">
        <ele>24.144609</ele>
        <time>2021-04-10T01:13:12.438Z</time>
      </trkpt>
      <trkpt lat="50.43212" lon="3.57616">
        <ele>24.151279</ele>
        <time>2021-04-10T01:13:13.535Z</time>
      </trkpt>
      <trkpt lat="50.4323" lon="3.57598">
        <ele>24.171494</ele>
        <time>2021-04-10T01:13:18.040Z</time>
      </trkpt>
      <trkpt lat="50.4325" lon="3.57576">
        <ele>24.194586</ele>
        <time>2021-04-10T01:13:22.952Z</time>
      </trkpt>
      <trkpt lat="50.43302" lon="3.57502">
        <ele>24.261162</ele>
        <time>2021-04-10T01:13:36.594Z</time>
      </trkpt>
      <trkpt lat="50.43304" lon="3.575">
        <ele>24.263216</ele>
        <time>2021-04-10T01:13:36.977Z</time>
      </trkpt>
      <trkpt lat="50.43313" lon="3.57482">
        <ele>24.276937</ele>
        <time>2021-04-10T01:13:39.756Z</time>
      </trkpt>
      <trkpt lat="50.43334" lon="3.57442">
        <ele>24.238056</ele>
        <time>2021-04-10T01:13:46.127Z</time>
      </trkpt>
      <trkpt lat="50.43346" lon="3.57417">
        <ele>24.157853</ele>
        <time>2021-04-10T01:13:49.876Z</time>
      </trkpt>
      <trkpt lat="50.43364" lon="3.5738">
        <ele>24.037959</ele>
        <time>2021-04-10T01:13:55.325Z</time>
      </trkpt>
      <trkpt lat="50.4338" lon="3.57359">
        <ele>23.953675</ele>
        <time>2021-04-10T01:13:59.182Z</time>
      </trkpt>
      <trkpt lat="50.43387" lon="3.57346">
        <ele>23.910356</ele>
        <time>2021-04-10T01:14:01.096Z</time>
      </trkpt>
      <trkpt lat="50.43395" lon="3.57315">
        <ele>23.822321</ele>
        <time>2021-04-10T01:14:05.104Z</time>
      </trkpt>
      <trkpt lat="50.43369" lon="3.57278">
        <ele>23.678299</ele>
        <time>2021-04-10T01:14:11.612Z</time>
      </trkpt>
      <trkpt lat="50.43295" lon="3.57116">
        <ele>23.456123</ele>
        <time>2021-04-10T01:14:37.176Z</time>
      </trkpt>
      <trkpt lat="50.43272" lon="3.57047">
        <ele>23.400052</ele>
        <time>2021-04-10T01:14:47.383Z</time>
      </trkpt>
      <trkpt lat="50.4327" lon="3.57">
        <ele>23.366458</ele>
        <time>2021-04-10T01:14:53.133Z</time>
      </trkpt>
      <trkpt lat="50.43271" lon="3.56969">
        <ele>23.228626</ele>
        <time>2021-04-10T01:14:57.065Z</time>
      </trkpt>
      <trkpt lat="50.43277" lon="3.56951">
        <ele>23.137706</ele>
        <time>2021-04-10T01:14:59.438Z</time>
      </trkpt>
      <trkpt lat="50.43282" lon="3.56926">
        <ele>23.022164</ele>
        <time>2021-04-10T01:15:02.527Z</time>
      </trkpt>
      <trkpt lat="50.43292" lon="3.56872">
        <ele>22.769412</ele>
        <time>2021-04-10T01:15:08.970Z</time>
      </trkpt>
      <trkpt lat="50.43298" lon="3.56838">
        <ele>22.610145</ele>
        <time>2021-04-10T01:15:12.867Z</time>
      </trkpt>
      <trkpt lat="50.43296" lon="3.56745">
        <ele>22.189426</ele>
        <time>2021-04-10T01:15:23.296Z</time>
      </trkpt>
      <trkpt lat="50.43277" lon="3.56591">
        <ele>21.543554</ele>
        <time>2021-04-10T01:15:40.720Z</time>
      </trkpt>
      <trkpt lat="50.43263" lon="3.56474">
        <ele>21.058802</ele>
        <time>2021-04-10T01:15:54.825Z</time>
      </trkpt>
      <trkpt lat="50.43245" lon="3.56322">
        <ele>20.917969</ele>
        <time>2021-04-10T01:16:14.646Z</time>
      </trkpt>
      <trkpt lat="50.43244" lon="3.56313">
        <ele>20.916113</ele>
        <time>2021-04-10T01:16:15.937Z</time>
      </trkpt>
      <trkpt lat="50.43234" lon="3.56231">
        <ele>20.899647</ele>
        <time>2021-04-10T01:16:26.850Z</time>
      </trkpt>
      <trkpt lat="50.43218" lon="3.56145">
        <ele>20.897267</ele>
        <time>2021-04-10T01:16:38.467Z</time>
      </trkpt>
      <trkpt lat="50.43191" lon="3.56064">
        <ele>20.933344</ele>
        <time>2021-04-10T01:16:50.300Z</time>
      </trkpt>
      <trkpt lat="50.4319" lon="3.56047">
        <ele>20.94</ele>
        <time>2021-04-10T01:16:52.470Z</time>
      </trkpt>
      <trkpt lat="50.43185" lon="3.56043">
        <ele>20.943445</ele>
        <time>2021-04-10T01:16:53.537Z</time>
      </trkpt>
      <trkpt lat="50.43075" lon="3.55818">
        <ele>21.401897</ele>
        <time>2021-04-10T01:17:31.041Z</time>
      </trkpt>
      <trkpt lat="50.43044" lon="3.5558">
        <ele>22.452259</ele>
        <time>2021-04-10T01:18:07.023Z</time>
      </trkpt>
      <trkpt lat="50.43031" lon="3.55529">
        <ele>22.797091</ele>
        <time>2021-04-10T01:18:15.591Z</time>
      </trkpt>
      <trkpt lat="50.43007" lon="3.55445">
        <ele>23.384166</ele>
        <time>2021-04-10T01:18:30.312Z</time>
      </trkpt>
      <trkpt lat="50.42936" lon="3.55327">
        <ele>24.368392</ele>
        <time>2021-04-10T01:18:56.046Z</time>
      </trkpt>
      <trkpt lat="50.42846" lon="3.55179">
        <ele>25.616265</ele>
        <time>2021-04-10T01:19:26.443Z</time>
      </trkpt>
      <trkpt lat="50.42875" lon="3.55121">
        <ele>26.079933</ele>
        <time>2021-04-10T01:19:37.265Z</time>
      </trkpt>
      <trkpt lat="50.42886" lon="3.55093">
        <ele>26.285833</ele>
        <time>2021-04-10T01:19:42.263Z</time>
      </trkpt>
      <trkpt lat="50.42899" lon="3.55073">
        <ele>26.467539</ele>
        <time>2021-04-10T01:19:46.470Z</time>
      </trkpt>
      <trkpt lat="50.42956" lon="3.54992">
        <ele>27.463629</ele>
        <time>2021-04-10T01:20:05.158Z</time>
      </trkpt>
      <trkpt lat="50.43046" lon="3.54851">
        <ele>30.432548</ele>
        <time>2021-04-10T01:20:44.233Z</time>
      </trkpt>
      <trkpt lat="50.43063" lon="3.54819">
        <ele>31.034074</ele>
        <time>2021-04-10T01:20:52.545Z</time>
      </trkpt>
      <trkpt lat="50.43118" lon="3.54701">
        <ele>32.186113</ele>
        <time>2021-04-10T01:21:21.289Z</time>
      </trkpt>
      <trkpt lat="50.43358" lon="3.54186">
        <ele>36.309258</ele>
        <time>2021-04-10T01:22:54.225Z</time>
      </trkpt>
      <trkpt lat="50.43431" lon="3.54022">
        <ele>37.738086</ele>
        <time>2021-04-10T01:23:25.802Z</time>
      </trkpt>
      <trkpt lat="50.4363" lon="3.53595">
        <ele>42.305115</ele>
        <time>2021-04-10T01:24:53.892Z</time>
      </trkpt>
      <trkpt lat="50.43672" lon="3.53513">
        <ele>43.049273</ele>
        <time>2021-04-10T01:25:10.442Z</time>
      </trkpt>
      <trkpt lat="50.44147" lon="3.52494">
        <ele>48.356674</ele>
        <time>2021-04-10T01:28:16.467Z</time>
      </trkpt>
      <trkpt lat="50.44451" lon="3.52707">
        <ele>44.705977</ele>
        <time>2021-04-10T01:29:12.582Z</time>
      </trkpt>
      <trkpt lat="50.44554" lon="3.52786">
        <ele>42.435756</ele>
        <time>2021-04-10T01:29:31.163Z</time>
      </trkpt>
      <trkpt lat="50.44573" lon="3.52796">
        <ele>42.049175</ele>
        <time>2021-04-10T01:29:34.167Z</time>
      </trkpt>
      <trkpt lat="50.44581" lon="3.52801">
        <ele>41.868202</ele>
        <time>2021-04-10T01:29:35.671Z</time>
      </trkpt>
      <trkpt lat="50.44596" lon="3.528">
        <ele>41.58307</ele>
        <time>2021-04-10T01:29:37.994Z</time>
      </trkpt>
      <trkpt lat="50.44641" lon="3.528">
        <ele>40.403163</ele>
        <time>2021-04-10T01:29:44.498Z</time>
      </trkpt>
      <trkpt lat="50.44682" lon="3.52799">
        <ele>39.067145</ele>
        <time>2021-04-10T01:29:50.464Z</time>
      </trkpt>
      <trkpt lat="50.44743" lon="3.52787">
        <ele>37.11215</ele>
        <time>2021-04-10T01:29:59.406Z</time>
      </trkpt>
      <trkpt lat="50.44757" lon="3.5278">
        <ele>36.644428</ele>
        <time>2021-04-10T01:30:01.415Z</time>
      </trkpt>
      <trkpt lat="50.44784" lon="3.52768">
        <ele>35.74816</ele>
        <time>2021-04-10T01:30:05.489Z</time>
      </trkpt>
      <trkpt lat="50.44833" lon="3.52736">
        <ele>34.319968</ele>
        <time>2021-04-10T01:30:13.269Z</time>
      </trkpt>
      <trkpt lat="50.4498" lon="3.52634">
        <ele>30.100918</ele>
        <time>2021-04-10T01:30:38.008Z</time>
      </trkpt>
      <trkpt lat="50.45016" lon="3.52608">
        <ele>28.916641</ele>
        <time>2021-04-10T01:30:44.420Z</time>
      </trkpt>
      <trkpt lat="50.45056" lon="3.52576">
        <ele>27.611316</ele>
        <time>2021-04-10T01:30:50.739Z</time>
      </trkpt>
      <trkpt lat="50.45073" lon="3.52554">
        <ele>26.949712</ele>
        <time>2021-04-10T01:30:54.093Z</time>
      </trkpt>
      <trkpt lat="50.45121" lon="3.52461">
        <ele>24.755184</ele>
        <time>2021-04-10T01:31:05.044Z</time>
      </trkpt>
      <trkpt lat="50.45125" lon="3.52455">
        <ele>24.614377</ele>
        <time>2021-04-10T01:31:05.707Z</time>
      </trkpt>
      <trkpt lat="50.45145" lon="3.52424">
        <ele>23.851677</ele>
        <time>2021-04-10T01:31:09.961Z</time>
      </trkpt>
      <trkpt lat="50.45198" lon="3.52351">
        <ele>21.950364</ele>
        <time>2021-04-10T01:31:20.367Z</time>
      </trkpt>
      <trkpt lat="50.45268" lon="3.52254">
        <ele>20.68196</ele>
        <time>2021-04-10T01:31:35.372Z</time>
      </trkpt>
      <trkpt lat="50.45298" lon="3.5221">
        <ele>20.750773</ele>
        <time>2021-04-10T01:31:43.784Z</time>
      </trkpt>
      <trkpt lat="50.45404" lon="3.52042">
        <ele>21.73803</ele>
        <time>2021-04-10T01:32:21.831Z</time>
      </trkpt>
      <trkpt lat="50.45429" lon="3.52011">
        <ele>22.21052</ele>
        <time>2021-04-10T01:32:30.326Z</time>
      </trkpt>
      <trkpt lat="50.45427" lon="3.52007">
        <ele>22.258115</ele>
        <time>2021-04-10T01:32:31.267Z</time>
      </trkpt>
      <trkpt lat="50.45453" lon="3.51955">
        <ele>22.881016</ele>
        <time>2021-04-10T01:32:42.453Z</time>
      </trkpt>
      <trkpt lat="50.45457" lon="3.51957">
        <ele>22.932034</ele>
        <time>2021-04-10T01:32:43.390Z</time>
      </trkpt>
      <trkpt lat="50.45462" lon="3.51929">
        <ele>23.201979</ele>
        <time>2021-04-10T01:32:47.195Z</time>
      </trkpt>
      <trkpt lat="50.45466" lon="3.51901">
        <ele>23.480306</ele>
        <time>2021-04-10T01:32:51.218Z</time>
      </trkpt>
      <trkpt lat="50.45478" lon="3.51791">
        <ele>24.423568</ele>
        <time>2021-04-10T01:33:06.164Z</time>
      </trkpt>
      <trkpt lat="50.45485" lon="3.51712">
        <ele>25.084949</ele>
        <time>2021-04-10T01:33:16.259Z</time>
      </trkpt>
      <trkpt lat="50.4553" lon="3.5162">
        <ele>26.012627</ele>
        <time>2021-04-10T01:33:30.936Z</time>
      </trkpt>
      <trkpt lat="50.45569" lon="3.51518">
        <ele>26.624</ele>
        <time>2021-04-10T01:33:44.791Z</time>
      </trkpt>
      <trkpt lat="50.45583" lon="3.51477">
        <ele>26.861597</ele>
        <time>2021-04-10T01:33:50.053Z</time>
      </trkpt>
      <trkpt lat="50.45601" lon="3.51427">
        <ele>27.158673</ele>
        <time>2021-04-10T01:33:56.459Z</time>
      </trkpt>
      <trkpt lat="50.45626" lon="3.51375">
        <ele>27.462459</ele>
        <time>2021-04-10T01:34:03.476Z</time>
      </trkpt>
      <trkpt lat="50.45649" lon="3.51328">
        <ele>27.678326</ele>
        <time>2021-04-10T01:34:09.976Z</time>
      </trkpt>
      <trkpt lat="50.45666" lon="3.51274">
        <ele>27.895038</ele>
        <time>2021-04-10T01:34:16.434Z</time>
      </trkpt>
      <trkpt lat="50.4572" lon="3.51037">
        <ele>28.637816</ele>
        <time>2021-04-10T01:34:44.133Z</time>
      </trkpt>
      <trkpt lat="50.45749" lon="3.50921">
        <ele>28.898401</ele>
        <time>2021-04-10T01:34:56.992Z</time>
      </trkpt>
      <trkpt lat="50.4577" lon="3.5083">
        <ele>28.872388</ele>
        <time>2021-04-10T01:35:06.056Z</time>
      </trkpt>
      <trkpt lat="50.4589" lon="3.50312">
        <ele>27.177465</ele>
        <time>2021-04-10T01:35:51.867Z</time>
      </trkpt>
      <trkpt lat="50.45941" lon="3.50087">
        <ele>26.986165</ele>
        <time>2021-04-10T01:36:14.321Z</time>
      </trkpt>
      <trkpt lat="50.45955" lon="3.50033">
        <ele>26.916772</ele>
        <time>2021-04-10T01:36:19.984Z</time>
      </trkpt>
      <trkpt lat="50.46013" lon="3.49779">
        <ele>26.509707</ele>
        <time>2021-04-10T01:36:44.109Z</time>
      </trkpt>
      <trkpt lat="50.46016" lon="3.49739">
        <ele>26.37908</ele>
        <time>2021-04-10T01:36:47.653Z</time>
      </trkpt>
      <trkpt lat="50.46009" lon="3.49667">
        <ele>26.147334</ele>
        <time>2021-04-10T01:36:53.789Z</time>
      </trkpt>
      <trkpt lat="50.45991" lon="3.49526">
        <ele>25.685429</ele>
        <time>2021-04-10T01:37:05.731Z</time>
      </trkpt>
      <trkpt lat="50.45991" lon="3.49518">
        <ele>25.656094</ele>
        <time>2021-04-10T01:37:06.362Z</time>
      </trkpt>
      <trkpt lat="50.45991" lon="3.4951">
        <ele>25.624789</ele>
        <time>2021-04-10T01:37:07.040Z</time>
      </trkpt>
      <trkpt lat="50.45993" lon="3.49508">
        <ele>25.615032</ele>
        <time>2021-04-10T01:37:07.248Z</time>
      </trkpt>
      <trkpt lat="50.45994" lon="3.49504">
        <ele>25.596683</ele>
        <time>2021-04-10T01:37:07.668Z</time>
      </trkpt>
      <trkpt lat="50.45994" lon="3.49501">
        <ele>25.586887</ele>
        <time>2021-04-10T01:37:07.874Z</time>
      </trkpt>
      <trkpt lat="50.45993" lon="3.49499">
        <ele>25.579501</ele>
        <time>2021-04-10T01:37:08.036Z</time>
      </trkpt>
      <trkpt lat="50.45993" lon="3.49498">
        <ele>25.572199</ele>
        <time>2021-04-10T01:37:08.206Z</time>
      </trkpt>
      <trkpt lat="50.45992" lon="3.49497">
        <ele>25.564765</ele>
        <time>2021-04-10T01:37:08.368Z</time>
      </trkpt>
      <trkpt lat="50.4599" lon="3.49496">
        <ele>25.555964</ele>
        <time>2021-04-10T01:37:08.553Z</time>
      </trkpt>
      <trkpt lat="50.45989" lon="3.49496">
        <ele>25.547659</ele>
        <time>2021-04-10T01:37:08.739Z</time>
      </trkpt>
      <trkpt lat="50.45987" lon="3.4949">
        <ele>25.525002</ele>
        <time>2021-04-10T01:37:09.230Z</time>
      </trkpt>
      <trkpt lat="50.45985" lon="3.4948">
        <ele>25.4854</ele>
        <time>2021-04-10T01:37:10.101Z</time>
      </trkpt>
      <trkpt lat="50.45938" lon="3.49122">
        <ele>24.079544</ele>
        <time>2021-04-10T01:37:40.646Z</time>
      </trkpt>
      <trkpt lat="50.45935" lon="3.49098">
        <ele>23.983153</ele>
        <time>2021-04-10T01:37:42.561Z</time>
      </trkpt>
      <trkpt lat="50.45925" lon="3.49016">
        <ele>23.652416</ele>
        <time>2021-04-10T01:37:49.468Z</time>
      </trkpt>
      <trkpt lat="50.46005" lon="3.48903">
        <ele>22.58545</ele>
        <time>2021-04-10T01:38:08.713Z</time>
      </trkpt>
      <trkpt lat="50.46129" lon="3.48723">
        <ele>20.613537</ele>
        <time>2021-04-10T01:38:36.863Z</time>
      </trkpt>
      <trkpt lat="50.46192" lon="3.48632">
        <ele>19.52439</ele>
        <time>2021-04-10T01:38:51.274Z</time>
      </trkpt>
      <trkpt lat="50.46267" lon="3.48523">
        <ele>18.790441</ele>
        <time>2021-04-10T01:39:09.245Z</time>
      </trkpt>
      <trkpt lat="50.46352" lon="3.484">
        <ele>18.174571</ele>
        <time>2021-04-10T01:39:31.366Z</time>
      </trkpt>
      <trkpt lat="50.46455" lon="3.48251">
        <ele>17.94458</ele>
        <time>2021-04-10T01:39:59.206Z</time>
      </trkpt>
      <trkpt lat="50.46507" lon="3.48174">
        <ele>17.747944</ele>
        <time>2021-04-10T01:40:12.860Z</time>
      </trkpt>
      <trkpt lat="50.46551" lon="3.48072">
        <ele>17.499505</ele>
        <time>2021-04-10T01:40:27.909Z</time>
      </trkpt>
      <trkpt lat="50.46627" lon="3.47989">
        <ele>17.228597</ele>
        <time>2021-04-10T01:40:45.513Z</time>
      </trkpt>
      <trkpt lat="50.46703" lon="3.47893">
        <ele>16.965578</ele>
        <time>2021-04-10T01:41:04.359Z</time>
      </trkpt>
      <trkpt lat="50.46729" lon="3.47857">
        <ele>16.872085</ele>
        <time>2021-04-10T01:41:09.268Z</time>
      </trkpt>
      <trkpt lat="50.46784" lon="3.47766">
        <ele>16.753392</ele>
        <time>2021-04-10T01:41:20.644Z</time>
      </trkpt>
      <trkpt lat="50.46852" lon="3.47621">
        <ele>16.589929</ele>
        <time>2021-04-10T01:41:37.096Z</time>
      </trkpt>
      <trkpt lat="50.46892" lon="3.47496">
        <ele>16.46638</ele>
        <time>2021-04-10T01:41:49.804Z</time>
      </trkpt>
      <trkpt lat="50.469" lon="3.47464">
        <ele>16.435587</ele>
        <time>2021-04-10T01:41:52.952Z</time>
      </trkpt>
      <trkpt lat="50.46897" lon="3.47433">
        <ele>16.408278</ele>
        <time>2021-04-10T01:41:55.696Z</time>
      </trkpt>
      <trkpt lat="50.46868" lon="3.47366">
        <ele>16.352683</ele>
        <time>2021-04-10T01:42:03.229Z</time>
      </trkpt>
      <trkpt lat="50.46868" lon="3.47341">
        <ele>16.349941</ele>
        <time>2021-04-10T01:42:05.563Z</time>
      </trkpt>
      <trkpt lat="50.46869" lon="3.47337">
        <ele>16.349448</ele>
        <time>2021-04-10T01:42:05.901Z</time>
      </trkpt>
      <trkpt lat="50.46874" lon="3.47324">
        <ele>16.347676</ele>
        <time>2021-04-10T01:42:07.437Z</time>
      </trkpt>
      <trkpt lat="50.46912" lon="3.47288">
        <ele>16.339963</ele>
        <time>2021-04-10T01:42:14.018Z</time>
      </trkpt>
      <trkpt lat="50.46932" lon="3.47258">
        <ele>16.335032</ele>
        <time>2021-04-10T01:42:18.137Z</time>
      </trkpt>
      <trkpt lat="50.46955" lon="3.4722">
        <ele>16.329052</ele>
        <time>2021-04-10T01:42:23.193Z</time>
      </trkpt>
      <trkpt lat="50.46967" lon="3.47199">
        <ele>16.325881</ele>
        <time>2021-04-10T01:42:26.044Z</time>
      </trkpt>
      <trkpt lat="50.47005" lon="3.47114">
        <ele>16.280742</ele>
        <time>2021-04-10T01:42:35.694Z</time>
      </trkpt>
      <trkpt lat="50.47043" lon="3.47002">
        <ele>16.214041</ele>
        <time>2021-04-10T01:42:47.508Z</time>
      </trkpt>
      <trkpt lat="50.47063" lon="3.46934">
        <ele>16.174336</ele>
        <time>2021-04-10T01:42:54.260Z</time>
      </trkpt>
      <trkpt lat="50.47076" lon="3.46911">
        <ele>16.12502</ele>
        <time>2021-04-10T01:42:56.971Z</time>
      </trkpt>
      <trkpt lat="50.47022" lon="3.46798">
        <ele>15.889663</ele>
        <time>2021-04-10T01:43:09.176Z</time>
      </trkpt>
      <trkpt lat="50.46992" lon="3.4673">
        <ele>15.753299</ele>
        <time>2021-04-10T01:43:16.460Z</time>
      </trkpt>
      <trkpt lat="50.4699" lon="3.46702">
        <ele>15.705941</ele>
        <time>2021-04-10T01:43:19.238Z</time>
      </trkpt>
      <trkpt lat="50.46993" lon="3.46686">
        <ele>15.706411</ele>
        <time>2021-04-10T01:43:20.630Z</time>
      </trkpt>
      <trkpt lat="50.46999" lon="3.46654">
        <ele>15.710844</ele>
        <time>2021-04-10T01:43:23.951Z</time>
      </trkpt>
      <trkpt lat="50.47001" lon="3.46644">
        <ele>15.712217</ele>
        <time>2021-04-10T01:43:24.914Z</time>
      </trkpt>
      <trkpt lat="50.47002" lon="3.46641">
        <ele>15.712674</ele>
        <time>2021-04-10T01:43:25.206Z</time>
      </trkpt>
      <trkpt lat="50.47006" lon="3.4663">
        <ele>15.714323</ele>
        <time>2021-04-10T01:43:26.300Z</time>
      </trkpt>
      <trkpt lat="50.47026" lon="3.46579">
        <ele>15.722227</ele>
        <time>2021-04-10T01:43:31.997Z</time>
      </trkpt>
      <trkpt lat="50.4703" lon="3.46565">
        <ele>15.724258</ele>
        <time>2021-04-10T01:43:33.772Z</time>
      </trkpt>
      <trkpt lat="50.47039" lon="3.46496">
        <ele>15.733471</ele>
        <time>2021-04-10T01:43:40.180Z</time>
      </trkpt>
      <trkpt lat="50.47035" lon="3.46455">
        <ele>15.738893</ele>
        <time>2021-04-10T01:43:44.166Z</time>
      </trkpt>
      <trkpt lat="50.47023" lon="3.46407">
        <ele>15.799058</ele>
        <time>2021-04-10T01:43:49.028Z</time>
      </trkpt>
      <trkpt lat="50.47019" lon="3.46397">
        <ele>15.822837</ele>
        <time>2021-04-10T01:43:50.608Z</time>
      </trkpt>
      <trkpt lat="50.47015" lon="3.46388">
        <ele>15.84298</ele>
        <time>2021-04-10T01:43:51.429Z</time>
      </trkpt>
      <trkpt lat="50.46967" lon="3.46315">
        <ele>16.040359</ele>
        <time>2021-04-10T01:44:02.559Z</time>
      </trkpt>
      <trkpt lat="50.46965" lon="3.46304">
        <ele>16.062314</ele>
        <time>2021-04-10T01:44:03.466Z</time>
      </trkpt>
      <trkpt lat="50.46964" lon="3.46297">
        <ele>16.075676</ele>
        <time>2021-04-10T01:44:04.394Z</time>
      </trkpt>
      <trkpt lat="50.46976" lon="3.4622">
        <ele>16.225101</ele>
        <time>2021-04-10T01:44:12.593Z</time>
      </trkpt>
      <trkpt lat="50.46974" lon="3.46142">
        <ele>16.370879</ele>
        <time>2021-04-10T01:44:20.689Z</time>
      </trkpt>
      <trkpt lat="50.46985" lon="3.46041">
        <ele>16.565214</ele>
        <time>2021-04-10T01:44:31.765Z</time>
      </trkpt>
      <trkpt lat="50.46983" lon="3.45999">
        <ele>16.644782</ele>
        <time>2021-04-10T01:44:36.107Z</time>
      </trkpt>
      <trkpt lat="50.46982" lon="3.45984">
        <ele>16.672035</ele>
        <time>2021-04-10T01:44:37.715Z</time>
      </trkpt>
      <trkpt lat="50.46995" lon="3.45934">
        <ele>16.774502</ele>
        <time>2021-04-10T01:44:45.102Z</time>
      </trkpt>
      <trkpt lat="50.47075" lon="3.45792">
        <ele>16.587639</ele>
        <time>2021-04-10T01:45:08.769Z</time>
      </trkpt>
      <trkpt lat="50.47121" lon="3.45727">
        <ele>16.463904</ele>
        <time>2021-04-10T01:45:20.464Z</time>
      </trkpt>
      <trkpt lat="50.47165" lon="3.4567">
        <ele>16.542235</ele>
        <time>2021-04-10T01:45:31.444Z</time>
      </trkpt>
      <trkpt lat="50.47185" lon="3.45665">
        <ele>16.580073</ele>
        <time>2021-04-10T01:45:34.600Z</time>
      </trkpt>
      <trkpt lat="50.47202" lon="3.45654">
        <ele>16.612887</ele>
        <time>2021-04-10T01:45:37.112Z</time>
      </trkpt>
      <trkpt lat="50.47185" lon="3.45665">
        <ele>16.645702</ele>
        <time>2021-04-10T01:45:40.011Z</time>
      </trkpt>
      <trkpt lat="50.47165" lon="3.4567">
        <ele>16.683539</ele>
        <time>2021-04-10T01:45:43.065Z</time>
      </trkpt>
      <trkpt lat="50.47155" lon="3.45672">
        <ele>16.703314</ele>
        <time>2021-04-10T01:45:45.018Z</time>
      </trkpt>
      <trkpt lat="50.4712" lon="3.45664">
        <ele>16.769061</ele>
        <time>2021-04-10T01:45:50.913Z</time>
      </trkpt>
      <trkpt lat="50.47094" lon="3.45645">
        <ele>16.902251</ele>
        <time>2021-04-10T01:45:56.061Z</time>
      </trkpt>
      <trkpt lat="50.46987" lon="3.4554">
        <ele>17.628368</ele>
        <time>2021-04-10T01:46:18.728Z</time>
      </trkpt>
      <trkpt lat="50.46957" lon="3.45509">
        <ele>17.808161</ele>
        <time>2021-04-10T01:46:24.301Z</time>
      </trkpt>
      <trkpt lat="50.46927" lon="3.45479">
        <ele>17.618724</ele>
        <time>2021-04-10T01:46:29.569Z</time>
      </trkpt>
      <trkpt lat="50.46903" lon="3.45459">
        <ele>17.47658</ele>
        <time>2021-04-10T01:46:33.390Z</time>
      </trkpt>
      <trkpt lat="50.46883" lon="3.45449">
        <ele>17.362277</ele>
        <time>2021-04-10T01:46:36.269Z</time>
      </trkpt>
      <trkpt lat="50.46875" lon="3.45447">
        <ele>17.32235</ele>
        <time>2021-04-10T01:46:37.324Z</time>
      </trkpt>
      <trkpt lat="50.46858" lon="3.45443">
        <ele>17.230841</ele>
        <time>2021-04-10T01:46:39.579Z</time>
      </trkpt>
      <trkpt lat="50.46793" lon="3.45452">
        <ele>16.885029</ele>
        <time>2021-04-10T01:46:47.522Z</time>
      </trkpt>
      <trkpt lat="50.46777" lon="3.45455">
        <ele>16.727055</ele>
        <time>2021-04-10T01:46:49.369Z</time>
      </trkpt>
      <trkpt lat="50.46764" lon="3.45451">
        <ele>16.573409</ele>
        <time>2021-04-10T01:46:51.060Z</time>
      </trkpt>
      <trkpt lat="50.46748" lon="3.45447">
        <ele>16.393653</ele>
        <time>2021-04-10T01:46:52.964Z</time>
      </trkpt>
      <trkpt lat="50.46743" lon="3.45447">
        <ele>16.342044</ele>
        <time>2021-04-10T01:46:53.506Z</time>
      </trkpt>
      <trkpt lat="50.46734" lon="3.45444">
        <ele>16.236017</ele>
        <time>2021-04-10T01:46:54.689Z</time>
      </trkpt>
      <trkpt lat="50.46729" lon="3.45442">
        <ele>16.182878</ele>
        <time>2021-04-10T01:46:55.250Z</time>
      </trkpt>
      <trkpt lat="50.46719" lon="3.45435">
        <ele>16.054106</ele>
        <time>2021-04-10T01:46:56.596Z</time>
      </trkpt>
      <trkpt lat="50.46706" lon="3.45426">
        <ele>15.905057</ele>
        <time>2021-04-10T01:46:58.196Z</time>
      </trkpt>
      <trkpt lat="50.46691" lon="3.45411">
        <ele>15.702165</ele>
        <time>2021-04-10T01:47:00.363Z</time>
      </trkpt>
      <trkpt lat="50.46673" lon="3.45396">
        <ele>15.478561</ele>
        <time>2021-04-10T01:47:02.750Z</time>
      </trkpt>
      <trkpt lat="50.46666" lon="3.45387">
        <ele>15.376123</ele>
        <time>2021-04-10T01:47:03.878Z</time>
      </trkpt>
      <trkpt lat="50.46665" lon="3.45387">
        <ele>15.367803</ele>
        <time>2021-04-10T01:47:03.943Z</time>
      </trkpt>
      <trkpt lat="50.46617" lon="3.45316">
        <ele>14.850099</ele>
        <time>2021-04-10T01:47:12.069Z</time>
      </trkpt>
      <trkpt lat="50.46611" lon="3.453">
        <ele>14.840816</ele>
        <time>2021-04-10T01:47:13.569Z</time>
      </trkpt>
      <trkpt lat="50.46608" lon="3.45278">
        <ele>14.830353</ele>
        <time>2021-04-10T01:47:15.418Z</time>
      </trkpt>
      <trkpt lat="50.46607" lon="3.45264">
        <ele>14.823714</ele>
        <time>2021-04-10T01:47:16.628Z</time>
      </trkpt>
      <trkpt lat="50.46608" lon="3.4526">
        <ele>14.821615</ele>
        <time>2021-04-10T01:47:17.018Z</time>
      </trkpt>
      <trkpt lat="50.46608" lon="3.45256">
        <ele>14.819443</ele>
        <time>2021-04-10T01:47:17.401Z</time>
      </trkpt>
      <trkpt lat="50.46611" lon="3.45249">
        <ele>14.8157</ele>
        <time>2021-04-10T01:47:17.993Z</time>
      </trkpt>
      <trkpt lat="50.46614" lon="3.45242">
        <ele>14.811541</ele>
        <time>2021-04-10T01:47:18.786Z</time>
      </trkpt>
      <trkpt lat="50.46624" lon="3.45222">
        <ele>14.799015</ele>
        <time>2021-04-10T01:47:21.224Z</time>
      </trkpt>
      <trkpt lat="50.46637" lon="3.45205">
        <ele>14.78655</ele>
        <time>2021-04-10T01:47:23.482Z</time>
      </trkpt>
      <trkpt lat="50.46649" lon="3.45188">
        <ele>14.774779</ele>
        <time>2021-04-10T01:47:25.998Z</time>
      </trkpt>
      <trkpt lat="50.46746" lon="3.45059">
        <ele>15.240358</ele>
        <time>2021-04-10T01:47:48.539Z</time>
      </trkpt>
      <trkpt lat="50.46759" lon="3.45033">
        <ele>15.396888</ele>
        <time>2021-04-10T01:47:52.501Z</time>
      </trkpt>
      <trkpt lat="50.46768" lon="3.45001">
        <ele>15.564009</ele>
        <time>2021-04-10T01:47:56.830Z</time>
      </trkpt>
      <trkpt lat="50.46777" lon="3.44958">
        <ele>15.778819</ele>
        <time>2021-04-10T01:48:02.080Z</time>
      </trkpt>
      <trkpt lat="50.46781" lon="3.44932">
        <ele>15.902776</ele>
        <time>2021-04-10T01:48:05.047Z</time>
      </trkpt>
      <trkpt lat="50.46809" lon="3.4475">
        <ele>16.453025</ele>
        <time>2021-04-10T01:48:24.962Z</time>
      </trkpt>
      <trkpt lat="50.46828" lon="3.44616">
        <ele>16.803064</ele>
        <time>2021-04-10T01:48:38.682Z</time>
      </trkpt>
      <trkpt lat="50.46829" lon="3.44533">
        <ele>17.07393</ele>
        <time>2021-04-10T01:48:47.445Z</time>
      </trkpt>
      <trkpt lat="50.46832" lon="3.44489">
        <ele>17.21983</ele>
        <time>2021-04-10T01:48:52.336Z</time>
      </trkpt>
      <trkpt lat="50.46842" lon="3.44451">
        <ele>17.355441</ele>
        <time>2021-04-10T01:48:56.932Z</time>
      </trkpt>
      <trkpt lat="50.46863" lon="3.4439">
        <ele>17.579109</ele>
        <time>2021-04-10T01:49:04.434Z</time>
      </trkpt>
      <trkpt lat="50.46871" lon="3.44361">
        <ele>17.683761</ele>
        <time>2021-04-10T01:49:08.018Z</time>
      </trkpt>
      <trkpt lat="50.4689" lon="3.443">
        <ele>17.816313</ele>
        <time>2021-04-10T01:49:15.314Z</time>
      </trkpt>
      <trkpt lat="50.46893" lon="3.4429">
        <ele>17.837749</ele>
        <time>2021-04-10T01:49:16.572Z</time>
      </trkpt>
      <trkpt lat="50.46895" lon="3.44286">
        <ele>17.847167</ele>
        <time>2021-04-10T01:49:17.141Z</time>
      </trkpt>
      <trkpt lat="50.46904" lon="3.44268">
        <ele>17.887679</ele>
        <time>2021-04-10T01:49:19.597Z</time>
      </trkpt>
      <trkpt lat="50.4697" lon="3.44166">
        <ele>18.15497</ele>
        <time>2021-04-10T01:49:34.517Z</time>
      </trkpt>
      <trkpt lat="50.47003" lon="3.44054">
        <ele>18.03218</ele>
        <time>2021-04-10T01:49:45.644Z</time>
      </trkpt>
      <trkpt lat="50.47021" lon="3.44011">
        <ele>17.917983</ele>
        <time>2021-04-10T01:49:50.126Z</time>
      </trkpt>
      <trkpt lat="50.47043" lon="3.43975">
        <ele>17.807482</ele>
        <time>2021-04-10T01:49:54.357Z</time>
      </trkpt>
      <trkpt lat="50.47089" lon="3.43934">
        <ele>17.625651</ele>
        <time>2021-04-10T01:50:01.292Z</time>
      </trkpt>
      <trkpt lat="50.47133" lon="3.43912">
        <ele>17.456029</ele>
        <time>2021-04-10T01:50:07.359Z</time>
      </trkpt>
      <trkpt lat="50.4716" lon="3.43897">
        <ele>17.347309</ele>
        <time>2021-04-10T01:50:11.186Z</time>
      </trkpt>
      <trkpt lat="50.47181" lon="3.43875">
        <ele>17.250515</ele>
        <time>2021-04-10T01:50:14.636Z</time>
      </trkpt>
      <trkpt lat="50.47213" lon="3.43826">
        <ele>17.081431</ele>
        <time>2021-04-10T01:50:20.757Z</time>
      </trkpt>
      <trkpt lat="50.47227" lon="3.43795">
        <ele>16.991702</ele>
        <time>2021-04-10T01:50:24.114Z</time>
      </trkpt>
      <trkpt lat="50.47243" lon="3.43737">
        <ele>16.916934</ele>
        <time>2021-04-10T01:50:29.688Z</time>
      </trkpt>
      <trkpt lat="50.47256" lon="3.43705">
        <ele>16.911449</ele>
        <time>2021-04-10T01:50:33.110Z</time>
      </trkpt>
      <trkpt lat="50.47305" lon="3.43634">
        <ele>16.896641</ele>
        <time>2021-04-10T01:50:42.651Z</time>
      </trkpt>
      <trkpt lat="50.47315" lon="3.43617">
        <ele>16.893328</ele>
        <time>2021-04-10T01:50:44.869Z</time>
      </trkpt>
      <trkpt lat="50.47333" lon="3.43582">
        <ele>16.886892</ele>
        <time>2021-04-10T01:50:49.429Z</time>
      </trkpt>
      <trkpt lat="50.47343" lon="3.43555">
        <ele>16.882385</ele>
        <time>2021-04-10T01:50:52.628Z</time>
      </trkpt>
      <trkpt lat="50.47355" lon="3.43514">
        <ele>17.011795</ele>
        <time>2021-04-10T01:50:57.374Z</time>
      </trkpt>
      <trkpt lat="50.47363" lon="3.4346">
        <ele>17.194073</ele>
        <time>2021-04-10T01:51:03.186Z</time>
      </trkpt>
      <trkpt lat="50.4737" lon="3.43392">
        <ele>17.422024</ele>
        <time>2021-04-10T01:51:10.579Z</time>
      </trkpt>
      <trkpt lat="50.47371" lon="3.43382">
        <ele>17.456237</ele>
        <time>2021-04-10T01:51:11.862Z</time>
      </trkpt>
      <trkpt lat="50.47378" lon="3.43333">
        <ele>17.62497</ele>
        <time>2021-04-10T01:51:17.343Z</time>
      </trkpt>
      <trkpt lat="50.47388" lon="3.43289">
        <ele>17.778688</ele>
        <time>2021-04-10T01:51:22.402Z</time>
      </trkpt>
      <trkpt lat="50.47394" lon="3.43256">
        <ele>17.888812</ele>
        <time>2021-04-10T01:51:26.452Z</time>
      </trkpt>
      <trkpt lat="50.47396" lon="3.43242">
        <ele>17.932384</ele>
        <time>2021-04-10T01:51:27.946Z</time>
      </trkpt>
      <trkpt lat="50.47398" lon="3.43194">
        <ele>18.087123</ele>
        <time>2021-04-10T01:51:33.603Z</time>
      </trkpt>
      <trkpt lat="50.47403" lon="3.43012">
        <ele>18.663404</ele>
        <time>2021-04-10T01:51:52.804Z</time>
      </trkpt>
      <trkpt lat="50.47406" lon="3.42913">
        <ele>18.75801</ele>
        <time>2021-04-10T01:52:02.883Z</time>
      </trkpt>
      <trkpt lat="50.47407" lon="3.4291">
        <ele>18.759967</ele>
        <time>2021-04-10T01:52:03.186Z</time>
      </trkpt>
      <trkpt lat="50.4741" lon="3.42874">
        <ele>18.780036</ele>
        <time>2021-04-10T01:52:06.947Z</time>
      </trkpt>
      <trkpt lat="50.47415" lon="3.42835">
        <ele>18.802092</ele>
        <time>2021-04-10T01:52:10.815Z</time>
      </trkpt>
      <trkpt lat="50.47422" lon="3.42797">
        <ele>18.823929</ele>
        <time>2021-04-10T01:52:14.609Z</time>
      </trkpt>
      <trkpt lat="50.47448" lon="3.42668">
        <ele>18.717549</ele>
        <time>2021-04-10T01:52:26.588Z</time>
      </trkpt>
      <trkpt lat="50.47452" lon="3.42652">
        <ele>18.668613</ele>
        <time>2021-04-10T01:52:28.302Z</time>
      </trkpt>
      <trkpt lat="50.47463" lon="3.42656">
        <ele>18.615578</ele>
        <time>2021-04-10T01:52:29.876Z</time>
      </trkpt>
      <trkpt lat="50.47478" lon="3.42659">
        <ele>18.552988</ele>
        <time>2021-04-10T01:52:31.826Z</time>
      </trkpt>
      <trkpt lat="50.47487" lon="3.42661">
        <ele>18.511546</ele>
        <time>2021-04-10T01:52:33.242Z</time>
      </trkpt>
      <trkpt lat="50.47501" lon="3.42662">
        <ele>18.452715</ele>
        <time>2021-04-10T01:52:34.965Z</time>
      </trkpt>
      <trkpt lat="50.47522" lon="3.4266">
        <ele>18.359461</ele>
        <time>2021-04-10T01:52:37.883Z</time>
      </trkpt>
      <trkpt lat="50.4753" lon="3.42658">
        <ele>18.326284</ele>
        <time>2021-04-10T01:52:38.828Z</time>
      </trkpt>
      <trkpt lat="50.47557" lon="3.42652">
        <ele>18.207671</ele>
        <time>2021-04-10T01:52:42.404Z</time>
      </trkpt>
      <trkpt lat="50.47712" lon="3.42598">
        <ele>17.493316</ele>
        <time>2021-04-10T01:53:02.908Z</time>
      </trkpt>
      <trkpt lat="50.4785" lon="3.42612">
        <ele>17.434539</ele>
        <time>2021-04-10T01:53:23.603Z</time>
      </trkpt>
      <trkpt lat="50.47869" lon="3.4261">
        <ele>17.468484</ele>
        <time>2021-04-10T01:53:26.669Z</time>
      </trkpt>
      <trkpt lat="50.47922" lon="3.42603">
        <ele>17.564669</ele>
        <time>2021-04-10T01:53:35.132Z</time>
      </trkpt>
      <trkpt lat="50.47945" lon="3.42594">
        <ele>17.6234</ele>
        <time>2021-04-10T01:53:39.125Z</time>
      </trkpt>
      <trkpt lat="50.48025" lon="3.42556">
        <ele>17.992372</ele>
        <time>2021-04-10T01:53:52.972Z</time>
      </trkpt>
      <trkpt lat="50.48123" lon="3.42506">
        <ele>18.407272</ele>
        <time>2021-04-10T01:54:10.506Z</time>
      </trkpt>
      <trkpt lat="50.48147" lon="3.42501">
        <ele>18.429687</ele>
        <time>2021-04-10T01:54:14.154Z</time>
      </trkpt>
      <trkpt lat="50.48167" lon="3.42499">
        <ele>18.449226</ele>
        <time>2021-04-10T01:54:17.408Z</time>
      </trkpt>
      <trkpt lat="50.4823" lon="3.42507">
        <ele>18.509004</ele>
        <time>2021-04-10T01:54:26.738Z</time>
      </trkpt>
      <trkpt lat="50.48243" lon="3.4251">
        <ele>18.521035</ele>
        <time>2021-04-10T01:54:28.782Z</time>
      </trkpt>
      <trkpt lat="50.48265" lon="3.42517">
        <ele>18.542207</ele>
        <time>2021-04-10T01:54:31.925Z</time>
      </trkpt>
      <trkpt lat="50.48298" lon="3.42533">
        <ele>18.559694</ele>
        <time>2021-04-10T01:54:37.068Z</time>
      </trkpt>
      <trkpt lat="50.48331" lon="3.42556">
        <ele>18.537966</ele>
        <time>2021-04-10T01:54:42.273Z</time>
      </trkpt>
      <trkpt lat="50.48364" lon="3.42603">
        <ele>18.51155</ele>
        <time>2021-04-10T01:54:48.706Z</time>
      </trkpt>
      <trkpt lat="50.48379" lon="3.42655">
        <ele>18.489926</ele>
        <time>2021-04-10T01:54:53.856Z</time>
      </trkpt>
      <trkpt lat="50.48391" lon="3.42733">
        <ele>18.459504</ele>
        <time>2021-04-10T01:55:01.484Z</time>
      </trkpt>
      <trkpt lat="50.48397" lon="3.4277">
        <ele>18.475217</ele>
        <time>2021-04-10T01:55:05.383Z</time>
      </trkpt>
      <trkpt lat="50.48404" lon="3.42822">
        <ele>18.50006</ele>
        <time>2021-04-10T01:55:10.468Z</time>
      </trkpt>
      <trkpt lat="50.48423" lon="3.42957">
        <ele>18.56552</ele>
        <time>2021-04-10T01:55:23.719Z</time>
      </trkpt>
      <trkpt lat="50.48426" lon="3.42971">
        <ele>18.572497</ele>
        <time>2021-04-10T01:55:25.195Z</time>
      </trkpt>
      <trkpt lat="50.48432" lon="3.43001">
        <ele>18.58726</ele>
        <time>2021-04-10T01:55:28.132Z</time>
      </trkpt>
      <trkpt lat="50.48438" lon="3.43022">
        <ele>18.606392</ele>
        <time>2021-04-10T01:55:30.281Z</time>
      </trkpt>
      <trkpt lat="50.48468" lon="3.43113">
        <ele>18.714103</ele>
        <time>2021-04-10T01:55:39.988Z</time>
      </trkpt>
      <trkpt lat="50.48503" lon="3.4319">
        <ele>18.814313</ele>
        <time>2021-04-10T01:55:49.404Z</time>
      </trkpt>
      <trkpt lat="50.48515" lon="3.43211">
        <ele>18.844007</ele>
        <time>2021-04-10T01:55:52.029Z</time>
      </trkpt>
      <trkpt lat="50.48516" lon="3.43213">
        <ele>18.847861</ele>
        <time>2021-04-10T01:55:52.597Z</time>
      </trkpt>
      <trkpt lat="50.48566" lon="3.43274">
        <ele>19.117541</ele>
        <time>2021-04-10T01:56:03.197Z</time>
      </trkpt>
      <trkpt lat="50.48614" lon="3.43307">
        <ele>19.435891</ele>
        <time>2021-04-10T01:56:12.185Z</time>
      </trkpt>
      <trkpt lat="50.48697" lon="3.4335">
        <ele>19.96545</ele>
        <time>2021-04-10T01:56:27.072Z</time>
      </trkpt>
      <trkpt lat="50.48714" lon="3.43358">
        <ele>20.159347</ele>
        <time>2021-04-10T01:56:30.218Z</time>
      </trkpt>
      <trkpt lat="50.48812" lon="3.43386">
        <ele>21.353145</ele>
        <time>2021-04-10T01:56:49.213Z</time>
      </trkpt>
      <trkpt lat="50.48835" lon="3.43392">
        <ele>21.639892</ele>
        <time>2021-04-10T01:56:54.117Z</time>
      </trkpt>
      <trkpt lat="50.48866" lon="3.43401">
        <ele>22.010474</ele>
        <time>2021-04-10T01:57:00.711Z</time>
      </trkpt>
      <trkpt lat="50.4889" lon="3.43412">
        <ele>22.394445</ele>
        <time>2021-04-10T01:57:06.024Z</time>
      </trkpt>
      <trkpt lat="50.48913" lon="3.43426">
        <ele>22.845462</ele>
        <time>2021-04-10T01:57:11.585Z</time>
      </trkpt>
      <trkpt lat="50.48969" lon="3.43467">
        <ele>23.983485</ele>
        <time>2021-04-10T01:57:25.775Z</time>
      </trkpt>
      <trkpt lat="50.48999" lon="3.43482">
        <ele>24.548328</ele>
        <time>2021-04-10T01:57:33.048Z</time>
      </trkpt>
      <trkpt lat="50.49043" lon="3.43502">
        <ele>25.382885</ele>
        <time>2021-04-10T01:57:43.134Z</time>
      </trkpt>
      <trkpt lat="50.49092" lon="3.43524">
        <ele>25.949625</ele>
        <time>2021-04-10T01:57:53.795Z</time>
      </trkpt>
      <trkpt lat="50.49135" lon="3.43542">
        <ele>26.430006</ele>
        <time>2021-04-10T01:58:02.583Z</time>
      </trkpt>
      <trkpt lat="50.4915" lon="3.43547">
        <ele>26.586039</ele>
        <time>2021-04-10T01:58:05.269Z</time>
      </trkpt>
      <trkpt lat="50.49169" lon="3.4355">
        <ele>26.794997</ele>
        <time>2021-04-10T01:58:08.733Z</time>
      </trkpt>
      <trkpt lat="50.49186" lon="3.4355">
        <ele>26.981694</ele>
        <time>2021-04-10T01:58:11.818Z</time>
      </trkpt>
      <trkpt lat="50.49218" lon="3.43548">
        <ele>27.322106</ele>
        <time>2021-04-10T01:58:17.322Z</time>
      </trkpt>
      <trkpt lat="50.49267" lon="3.43542">
        <ele>27.504452</ele>
        <time>2021-04-10T01:58:25.603Z</time>
      </trkpt>
      <trkpt lat="50.4929" lon="3.43541">
        <ele>27.576934</ele>
        <time>2021-04-10T01:58:29.307Z</time>
      </trkpt>
      <trkpt lat="50.49477" lon="3.43565">
        <ele>28.241077</ele>
        <time>2021-04-10T01:58:58.647Z</time>
      </trkpt>
      <trkpt lat="50.4956" lon="3.43546">
        <ele>28.57073</ele>
        <time>2021-04-10T01:59:12.946Z</time>
      </trkpt>
      <trkpt lat="50.49576" lon="3.43539">
        <ele>28.636898</ele>
        <time>2021-04-10T01:59:15.755Z</time>
      </trkpt>
      <trkpt lat="50.49635" lon="3.435">
        <ele>28.91775</ele>
        <time>2021-04-10T01:59:30.234Z</time>
      </trkpt>
      <trkpt lat="50.49652" lon="3.43489">
        <ele>29.001487</ele>
        <time>2021-04-10T01:59:34.609Z</time>
      </trkpt>
      <trkpt lat="50.49734" lon="3.43444">
        <ele>29.386857</ele>
        <time>2021-04-10T01:59:53.706Z</time>
      </trkpt>
      <trkpt lat="50.49756" lon="3.43431">
        <ele>29.373333</ele>
        <time>2021-04-10T01:59:58.616Z</time>
      </trkpt>
      <trkpt lat="50.49769" lon="3.43422">
        <ele>29.272101</ele>
        <time>2021-04-10T02:00:00.652Z</time>
      </trkpt>
      <trkpt lat="50.49777" lon="3.43415">
        <ele>29.208497</ele>
        <time>2021-04-10T02:00:01.992Z</time>
      </trkpt>
      <trkpt lat="50.49839" lon="3.43364">
        <ele>28.720911</ele>
        <time>2021-04-10T02:00:11.234Z</time>
      </trkpt>
      <trkpt lat="50.49883" lon="3.4333">
        <ele>28.382387</ele>
        <time>2021-04-10T02:00:17.305Z</time>
      </trkpt>
      <trkpt lat="50.49958" lon="3.43293">
        <ele>27.114358</ele>
        <time>2021-04-10T02:00:26.187Z</time>
      </trkpt>
      <trkpt lat="50.50006" lon="3.43277">
        <ele>26.097815</ele>
        <time>2021-04-10T02:00:31.418Z</time>
      </trkpt>
      <trkpt lat="50.50048" lon="3.43272">
        <ele>25.223154</ele>
        <time>2021-04-10T02:00:35.911Z</time>
      </trkpt>
      <trkpt lat="50.50109" lon="3.43266">
        <ele>23.983488</ele>
        <time>2021-04-10T02:00:42.519Z</time>
      </trkpt>
      <trkpt lat="50.50139" lon="3.43264">
        <ele>23.427039</ele>
        <time>2021-04-10T02:00:45.679Z</time>
      </trkpt>
      <trkpt lat="50.50145" lon="3.43263">
        <ele>23.306941</ele>
        <time>2021-04-10T02:00:46.321Z</time>
      </trkpt>
      <trkpt lat="50.50204" lon="3.43255">
        <ele>22.18514</ele>
        <time>2021-04-10T02:00:52.750Z</time>
      </trkpt>
      <trkpt lat="50.50268" lon="3.43223">
        <ele>20.982592</ele>
        <time>2021-04-10T02:01:00.549Z</time>
      </trkpt>
      <trkpt lat="50.50292" lon="3.43213">
        <ele>20.826718</ele>
        <time>2021-04-10T02:01:03.512Z</time>
      </trkpt>
      <trkpt lat="50.50297" lon="3.43211">
        <ele>20.791252</ele>
        <time>2021-04-10T02:01:04.255Z</time>
      </trkpt>
      <trkpt lat="50.50323" lon="3.43204">
        <ele>20.627156</ele>
        <time>2021-04-10T02:01:07.607Z</time>
      </trkpt>
      <trkpt lat="50.50333" lon="3.43201">
        <ele>20.561088</ele>
        <time>2021-04-10T02:01:08.976Z</time>
      </trkpt>
      <trkpt lat="50.50342" lon="3.432">
        <ele>20.502946</ele>
        <time>2021-04-10T02:01:10.177Z</time>
      </trkpt>
      <trkpt lat="50.50351" lon="3.432">
        <ele>20.450331</ele>
        <time>2021-04-10T02:01:11.233Z</time>
      </trkpt>
      <trkpt lat="50.50355" lon="3.43201">
        <ele>20.422713</ele>
        <time>2021-04-10T02:01:11.797Z</time>
      </trkpt>
      <trkpt lat="50.50355" lon="3.43204">
        <ele>20.410551</ele>
        <time>2021-04-10T02:01:12.078Z</time>
      </trkpt>
      <trkpt lat="50.50355" lon="3.43207">
        <ele>20.397872</ele>
        <time>2021-04-10T02:01:12.357Z</time>
      </trkpt>
      <trkpt lat="50.50356" lon="3.43209">
        <ele>20.386303</ele>
        <time>2021-04-10T02:01:12.603Z</time>
      </trkpt>
      <trkpt lat="50.50359" lon="3.43212">
        <ele>20.363281</ele>
        <time>2021-04-10T02:01:13.075Z</time>
      </trkpt>
      <trkpt lat="50.50361" lon="3.43212">
        <ele>20.351871</ele>
        <time>2021-04-10T02:01:13.323Z</time>
      </trkpt>
      <trkpt lat="50.50363" lon="3.43211">
        <ele>20.340499</ele>
        <time>2021-04-10T02:01:13.567Z</time>
      </trkpt>
      <trkpt lat="50.50366" lon="3.43201">
        <ele>20.29709</ele>
        <time>2021-04-10T02:01:14.485Z</time>
      </trkpt>
      <trkpt lat="50.50365" lon="3.43199">
        <ele>20.285558</ele>
        <time>2021-04-10T02:01:14.706Z</time>
      </trkpt>
      <trkpt lat="50.50369" lon="3.43196">
        <ele>20.26416</ele>
        <time>2021-04-10T02:01:15.104Z</time>
      </trkpt>
      <trkpt lat="50.50376" lon="3.43191">
        <ele>20.210208</ele>
        <time>2021-04-10T02:01:16.245Z</time>
      </trkpt>
      <trkpt lat="50.50385" lon="3.43181">
        <ele>20.140578</ele>
        <time>2021-04-10T02:01:17.796Z</time>
      </trkpt>
      <trkpt lat="50.50406" lon="3.43154">
        <ele>19.971826</ele>
        <time>2021-04-10T02:01:21.403Z</time>
      </trkpt>
      <trkpt lat="50.5041" lon="3.43161">
        <ele>19.93609</ele>
        <time>2021-04-10T02:01:27.687Z</time>
      </trkpt>
      <trkpt lat="50.50379" lon="3.43208">
        <ele>19.922942</ele>
        <time>2021-04-10T02:02:15.217Z</time>
      </trkpt>
      <trkpt lat="50.5041" lon="3.43161">
        <ele>19.96979</ele>
        <time>2021-04-10T02:03:02.865Z</time>
      </trkpt>
      <trkpt lat="50.50406" lon="3.43154">
        <ele>19.975978</ele>
        <time>2021-04-10T02:03:08.953Z</time>
      </trkpt>
      <trkpt lat="50.50385" lon="3.43181">
        <ele>20.005198</ele>
        <time>2021-04-10T02:03:13.228Z</time>
      </trkpt>
      <trkpt lat="50.50376" lon="3.43191">
        <ele>20.017255</ele>
        <time>2021-04-10T02:03:14.789Z</time>
      </trkpt>
      <trkpt lat="50.50369" lon="3.43196">
        <ele>20.026597</ele>
        <time>2021-04-10T02:03:16.197Z</time>
      </trkpt>
      <trkpt lat="50.50365" lon="3.43199">
        <ele>20.030302</ele>
        <time>2021-04-10T02:03:16.817Z</time>
      </trkpt>
      <trkpt lat="50.50364" lon="3.43196">
        <ele>20.032311</ele>
        <time>2021-04-10T02:03:17.136Z</time>
      </trkpt>
      <trkpt lat="50.50361" lon="3.43194">
        <ele>20.036245</ele>
        <time>2021-04-10T02:03:17.715Z</time>
      </trkpt>
      <trkpt lat="50.50359" lon="3.43194">
        <ele>20.038332</ele>
        <time>2021-04-10T02:03:18.012Z</time>
      </trkpt>
      <trkpt lat="50.50359" lon="3.43194">
        <ele>20.038661</ele>
        <time>2021-04-10T02:03:18.073Z</time>
      </trkpt>
      <trkpt lat="50.50356" lon="3.43198">
        <ele>20.042981</ele>
        <time>2021-04-10T02:03:18.677Z</time>
      </trkpt>
      <trkpt lat="50.50355" lon="3.43201">
        <ele>20.045187</ele>
        <time>2021-04-10T02:03:18.985Z</time>
      </trkpt>
      <trkpt lat="50.50355" lon="3.43204">
        <ele>20.047293</ele>
        <time>2021-04-10T02:03:19.292Z</time>
      </trkpt>
      <trkpt lat="50.50355" lon="3.43207">
        <ele>20.049489</ele>
        <time>2021-04-10T02:03:19.582Z</time>
      </trkpt>
      <trkpt lat="50.50356" lon="3.43209">
        <ele>20.051492</ele>
        <time>2021-04-10T02:03:19.833Z</time>
      </trkpt>
      <trkpt lat="50.50359" lon="3.43212">
        <ele>20.055478</ele>
        <time>2021-04-10T02:03:20.340Z</time>
      </trkpt>
      <trkpt lat="50.50361" lon="3.43212">
        <ele>20.057454</ele>
        <time>2021-04-10T02:03:20.628Z</time>
      </trkpt>
      <trkpt lat="50.5036" lon="3.43218">
        <ele>20.062259</ele>
        <time>2021-04-10T02:03:21.445Z</time>
      </trkpt>
      <trkpt lat="50.50325" lon="3.43292">
        <ele>20.092824</ele>
        <time>2021-04-10T02:03:30.636Z</time>
      </trkpt>
      <trkpt lat="50.50185" lon="3.43497">
        <ele>20.125766</ele>
        <time>2021-04-10T02:03:58.957Z</time>
      </trkpt>
      <trkpt lat="50.50098" lon="3.43629">
        <ele>20.117735</ele>
        <time>2021-04-10T02:04:16.772Z</time>
      </trkpt>
      <trkpt lat="50.50074" lon="3.43662">
        <ele>20.10432</ele>
        <time>2021-04-10T02:04:21.685Z</time>
      </trkpt>
      <trkpt lat="50.50051" lon="3.43694">
        <ele>20.088346</ele>
        <time>2021-04-10T02:04:26.061Z</time>
      </trkpt>
      <trkpt lat="50.50021" lon="3.43737">
        <ele>20.066869</ele>
        <time>2021-04-10T02:04:31.885Z</time>
      </trkpt>
      <trkpt lat="50.49968" lon="3.4381">
        <ele>20.030076</ele>
        <time>2021-04-10T02:04:42.214Z</time>
      </trkpt>
      <trkpt lat="50.49959" lon="3.43822">
        <ele>20.023815</ele>
        <time>2021-04-10T02:04:43.839Z</time>
      </trkpt>
      <trkpt lat="50.49932" lon="3.43869">
        <ele>20.057624</ele>
        <time>2021-04-10T02:04:49.747Z</time>
      </trkpt>
      <trkpt lat="50.49908" lon="3.43909">
        <ele>20.090099</ele>
        <time>2021-04-10T02:04:55.022Z</time>
      </trkpt>
      <trkpt lat="50.49875" lon="3.43953">
        <ele>20.1289</ele>
        <time>2021-04-10T02:05:01.542Z</time>
      </trkpt>
      <trkpt lat="50.4985" lon="3.43976">
        <ele>20.155079</ele>
        <time>2021-04-10T02:05:05.823Z</time>
      </trkpt>
      <trkpt lat="50.49781" lon="3.4402">
        <ele>20.354298</ele>
        <time>2021-04-10T02:05:18.017Z</time>
      </trkpt>
      <trkpt lat="50.49763" lon="3.44038">
        <ele>20.442918</ele>
        <time>2021-04-10T02:05:21.564Z</time>
      </trkpt>
      <trkpt lat="50.49744" lon="3.44059">
        <ele>20.540945</ele>
        <time>2021-04-10T02:05:25.716Z</time>
      </trkpt>
      <trkpt lat="50.49705" lon="3.44106">
        <ele>20.747038</ele>
        <time>2021-04-10T02:05:34.502Z</time>
      </trkpt>
      <trkpt lat="50.49685" lon="3.44131">
        <ele>20.855022</ele>
        <time>2021-04-10T02:05:39.096Z</time>
      </trkpt>
      <trkpt lat="50.49648" lon="3.44196">
        <ele>20.594293</ele>
        <time>2021-04-10T02:05:47.201Z</time>
      </trkpt>
      <trkpt lat="50.49645" lon="3.44201">
        <ele>20.549304</ele>
        <time>2021-04-10T02:05:47.989Z</time>
      </trkpt>
      <trkpt lat="50.49629" lon="3.44231">
        <ele>20.308407</ele>
        <time>2021-04-10T02:05:50.966Z</time>
      </trkpt>
      <trkpt lat="50.49602" lon="3.44292">
        <ele>19.849712</ele>
        <time>2021-04-10T02:05:56.586Z</time>
      </trkpt>
      <trkpt lat="50.496" lon="3.44307">
        <ele>19.754122</ele>
        <time>2021-04-10T02:05:57.889Z</time>
      </trkpt>
      <trkpt lat="50.49601" lon="3.44316">
        <ele>19.697822</ele>
        <time>2021-04-10T02:05:58.582Z</time>
      </trkpt>
      <trkpt lat="50.49606" lon="3.44327">
        <ele>19.617077</ele>
        <time>2021-04-10T02:05:59.413Z</time>
      </trkpt>
      <trkpt lat="50.49657" lon="3.44381">
        <ele>18.910319</ele>
        <time>2021-04-10T02:06:06.567Z</time>
      </trkpt>
      <trkpt lat="50.49663" lon="3.44393">
        <ele>18.746563</ele>
        <time>2021-04-10T02:06:07.569Z</time>
      </trkpt>
      <trkpt lat="50.49669" lon="3.44396">
        <ele>18.647928</ele>
        <time>2021-04-10T02:06:08.295Z</time>
      </trkpt>
      <trkpt lat="50.49672" lon="3.44401">
        <ele>18.573629</ele>
        <time>2021-04-10T02:06:08.853Z</time>
      </trkpt>
      <trkpt lat="50.49674" lon="3.44405">
        <ele>18.520912</ele>
        <time>2021-04-10T02:06:09.179Z</time>
      </trkpt>
      <trkpt lat="50.49687" lon="3.44433">
        <ele>18.157995</ele>
        <time>2021-04-10T02:06:11.562Z</time>
      </trkpt>
      <trkpt lat="50.49735" lon="3.44569">
        <ele>16.527086</ele>
        <time>2021-04-10T02:06:22.678Z</time>
      </trkpt>
      <trkpt lat="50.49754" lon="3.44626">
        <ele>16.143801</ele>
        <time>2021-04-10T02:06:27.551Z</time>
      </trkpt>
      <trkpt lat="50.49776" lon="3.4469">
        <ele>15.982199</ele>
        <time>2021-04-10T02:06:33.714Z</time>
      </trkpt>
      <trkpt lat="50.49798" lon="3.44759">
        <ele>15.809854</ele>
        <time>2021-04-10T02:06:40.489Z</time>
      </trkpt>
      <trkpt lat="50.49799" lon="3.44762">
        <ele>15.802712</ele>
        <time>2021-04-10T02:06:40.877Z</time>
      </trkpt>
      <trkpt lat="50.49844" lon="3.44889">
        <ele>15.844371</ele>
        <time>2021-04-10T02:06:55.327Z</time>
      </trkpt>
      <trkpt lat="50.49851" lon="3.44909">
        <ele>15.961151</ele>
        <time>2021-04-10T02:06:58.071Z</time>
      </trkpt>
      <trkpt lat="50.49853" lon="3.44914">
        <ele>15.989532</ele>
        <time>2021-04-10T02:06:58.698Z</time>
      </trkpt>
      <trkpt lat="50.49864" lon="3.44939">
        <ele>16.139358</ele>
        <time>2021-04-10T02:07:02.234Z</time>
      </trkpt>
      <trkpt lat="50.49867" lon="3.44946">
        <ele>16.180575</ele>
        <time>2021-04-10T02:07:03.259Z</time>
      </trkpt>
      <trkpt lat="50.49874" lon="3.44964">
        <ele>16.285478</ele>
        <time>2021-04-10T02:07:05.939Z</time>
      </trkpt>
      <trkpt lat="50.49935" lon="3.45106">
        <ele>17.038398</ele>
        <time>2021-04-10T02:07:26.671Z</time>
      </trkpt>
      <trkpt lat="50.49943" lon="3.45125">
        <ele>17.080018</ele>
        <time>2021-04-10T02:07:29.215Z</time>
      </trkpt>
      <trkpt lat="50.49958" lon="3.45159">
        <ele>17.152652</ele>
        <time>2021-04-10T02:07:33.336Z</time>
      </trkpt>
      <trkpt lat="50.49974" lon="3.45177">
        <ele>17.208462</ele>
        <time>2021-04-10T02:07:36.490Z</time>
      </trkpt>
      <trkpt lat="50.49999" lon="3.45188">
        <ele>17.278296</ele>
        <time>2021-04-10T02:07:40.132Z</time>
      </trkpt>
      <trkpt lat="50.50005" lon="3.45189">
        <ele>17.296031</ele>
        <time>2021-04-10T02:07:41.167Z</time>
      </trkpt>
      <trkpt lat="50.50044" lon="3.45199">
        <ele>17.406391</ele>
        <time>2021-04-10T02:07:47.322Z</time>
      </trkpt>
      <trkpt lat="50.50051" lon="3.45202">
        <ele>17.425961</ele>
        <time>2021-04-10T02:07:48.376Z</time>
      </trkpt>
      <trkpt lat="50.50052" lon="3.45203">
        <ele>17.43059</ele>
        <time>2021-04-10T02:07:48.631Z</time>
      </trkpt>
      <trkpt lat="50.50084" lon="3.45223">
        <ele>17.481803</ele>
        <time>2021-04-10T02:07:53.891Z</time>
      </trkpt>
      <trkpt lat="50.50092" lon="3.45227">
        <ele>17.477106</ele>
        <time>2021-04-10T02:07:55.105Z</time>
      </trkpt>
      <trkpt lat="50.5013" lon="3.45249">
        <ele>17.454856</ele>
        <time>2021-04-10T02:08:00.592Z</time>
      </trkpt>
      <trkpt lat="50.50142" lon="3.45258">
        <ele>17.447528</ele>
        <time>2021-04-10T02:08:02.482Z</time>
      </trkpt>
      <trkpt lat="50.50193" lon="3.45294">
        <ele>17.416401</ele>
        <time>2021-04-10T02:08:10.036Z</time>
      </trkpt>
      <trkpt lat="50.50229" lon="3.45322">
        <ele>17.394505</ele>
        <time>2021-04-10T02:08:15.757Z</time>
      </trkpt>
      <trkpt lat="50.5031" lon="3.45386">
        <ele>17.830426</ele>
        <time>2021-04-10T02:08:32.219Z</time>
      </trkpt>
      <trkpt lat="50.50341" lon="3.45413">
        <ele>18.021026</ele>
        <time>2021-04-10T02:08:38.273Z</time>
      </trkpt>
      <trkpt lat="50.50355" lon="3.45425">
        <ele>18.107085</ele>
        <time>2021-04-10T02:08:40.889Z</time>
      </trkpt>
      <trkpt lat="50.50407" lon="3.45459">
        <ele>18.406443</ele>
        <time>2021-04-10T02:08:50.240Z</time>
      </trkpt>
      <trkpt lat="50.50416" lon="3.45464">
        <ele>18.458133</ele>
        <time>2021-04-10T02:08:51.907Z</time>
      </trkpt>
      <trkpt lat="50.50444" lon="3.45482">
        <ele>18.612301</ele>
        <time>2021-04-10T02:08:57.056Z</time>
      </trkpt>
      <trkpt lat="50.50447" lon="3.4549">
        <ele>18.643499</ele>
        <time>2021-04-10T02:08:58.059Z</time>
      </trkpt>
      <trkpt lat="50.50448" lon="3.45508">
        <ele>18.704624</ele>
        <time>2021-04-10T02:09:00.026Z</time>
      </trkpt>
      <trkpt lat="50.50443" lon="3.45552">
        <ele>18.849739</ele>
        <time>2021-04-10T02:09:05.092Z</time>
      </trkpt>
      <trkpt lat="50.50441" lon="3.45568">
        <ele>18.903556</ele>
        <time>2021-04-10T02:09:06.774Z</time>
      </trkpt>
      <trkpt lat="50.50441" lon="3.45573">
        <ele>18.920473</ele>
        <time>2021-04-10T02:09:07.306Z</time>
      </trkpt>
      <trkpt lat="50.5044" lon="3.45588">
        <ele>18.971109</ele>
        <time>2021-04-10T02:09:09.156Z</time>
      </trkpt>
      <trkpt lat="50.50437" lon="3.45631">
        <ele>19.114832</ele>
        <time>2021-04-10T02:09:13.482Z</time>
      </trkpt>
      <trkpt lat="50.50436" lon="3.45642">
        <ele>19.151179</ele>
        <time>2021-04-10T02:09:14.870Z</time>
      </trkpt>
      <trkpt lat="50.50433" lon="3.4572">
        <ele>19.38233</ele>
        <time>2021-04-10T02:09:22.878Z</time>
      </trkpt>
      <trkpt lat="50.50424" lon="3.45772">
        <ele>19.524461</ele>
        <time>2021-04-10T02:09:28.550Z</time>
      </trkpt>
      <trkpt lat="50.5041" lon="3.45851">
        <ele>19.739019</ele>
        <time>2021-04-10T02:09:37.125Z</time>
      </trkpt>
      <trkpt lat="50.50361" lon="3.46074">
        <ele>20.356382</ele>
        <time>2021-04-10T02:10:02.383Z</time>
      </trkpt>
      <trkpt lat="50.50345" lon="3.46155">
        <ele>20.576764</ele>
        <time>2021-04-10T02:10:11.236Z</time>
      </trkpt>
      <trkpt lat="50.50335" lon="3.46236">
        <ele>20.765032</ele>
        <time>2021-04-10T02:10:19.451Z</time>
      </trkpt>
      <trkpt lat="50.50325" lon="3.46304">
        <ele>20.765032</ele>
        <time>2021-04-10T02:10:26.503Z</time>
      </trkpt>
      <trkpt lat="50.50317" lon="3.46374">
        <ele>20.765032</ele>
        <time>2021-04-10T02:10:33.549Z</time>
      </trkpt>
      <trkpt lat="50.50313" lon="3.46411">
        <ele>20.765032</ele>
        <time>2021-04-10T02:10:37.037Z</time>
      </trkpt>
      <trkpt lat="50.50316" lon="3.46422">
        <ele>20.765032</ele>
        <time>2021-04-10T02:10:38.283Z</time>
      </trkpt>
      <trkpt lat="50.5034" lon="3.46438">
        <ele>20.765032</ele>
        <time>2021-04-10T02:10:42.105Z</time>
      </trkpt>
      <trkpt lat="50.50361" lon="3.46454">
        <ele>20.765032</ele>
        <time>2021-04-10T02:10:45.494Z</time>
      </trkpt>
      <trkpt lat="50.50361" lon="3.46454">
        <ele>20.765032</ele>
        <time>2021-04-10T02:10:45.557Z</time>
      </trkpt>
    </trkseg>
  </trk>
</gpx>